M I D A S
Marine Information and Data Acquisition System
Tripno 1153 of the Zeeleeuw from 2006-08-25 06:30:52 to 2006-08-25 13:53:13
Back to CruiseResearch ActivitiesStationsMapUnderway DataData graphs

EquipmentUnitsComment
TimeDGPSUTC
LatitudeDGPSDM.mWGS84
LongitudeDGPSDM.mWGS84
TemperatureSBE03/SBE38deg celciusITS90
ConductivitySBE21S/mITS90
SalinitySBE21 Practical Salinity Units
ChlorophylAChelsea fluorimeterg/lCalibrated in Aceton
Missing or incorrect values are displayed as -999
Sea surface data collected by the RV Zeeleeuw from 2006-08-25 06:23:06 to 2006-08-25 14:06:03
                                                                                    Next 1000 lines
Time Latitude Longitude Temperature Conductivity Salinity ChlorophylA
2006-08-25 06:23:16 51°13.603 2°56.092 23.8186 4.841044 31.410795 0.196324
2006-08-25 06:23:21 51°13.604 2°56.088 23.8173 4.841255 31.413237 0.196324
2006-08-25 06:23:26 51°13.605 2°56.084 23.8254 4.841149 31.412016 0.162614
2006-08-25 06:23:32 51°13.606 2°56.078 23.8405 4.841149 31.412471 0.196324
2006-08-25 06:23:37 51°13.607 2°56.073 23.849 4.841149 31.412471 0.196324
2006-08-25 06:23:42 51°13.609 2°56.067 23.8481 4.841149 31.412471 0.162614
2006-08-25 06:23:47 51°13.61 2°56.062 23.8513 4.841149 31.412016 0.162614
2006-08-25 06:23:52 51°13.612 2°56.056 23.8565 4.841149 31.412016 0.196324
2006-08-25 06:23:56 51°13.613 2°56.052 23.8386 4.841044 31.41125 0.196324
2006-08-25 06:24:02 51°13.615 2°56.044 23.8212 4.841255 31.411873 0.196324
2006-08-25 06:24:07 51°13.616 2°56.038 23.8143 4.841255 31.411873 0.196324
2006-08-25 06:24:11 51°13.617 2°56.032 23.8448 4.841255 31.411873 0.162614
2006-08-25 06:24:17 51°13.619 2°56.024 23.85 4.841149 31.411107 0.162614
2006-08-25 06:24:22 51°13.621 2°56.017 23.8656 4.841149 31.411107 0.196324
2006-08-25 06:24:27 51°13.623 2°56.009 23.8825 4.841255 31.411873 0.196324
2006-08-25 06:24:32 51°13.624 2°56.002 23.8608 4.841149 31.410653 0.196324
2006-08-25 06:24:37 51°13.626 2°55.994 23.8596 4.841149 31.410653 0.196324
2006-08-25 06:24:42 51°13.628 2°55.986 23.8513 4.841044 31.409887 0.196324
2006-08-25 06:24:47 51°13.631 2°55.978 23.8573 4.841255 31.411873 0.196324
2006-08-25 06:24:52 51°13.633 2°55.97 23.8609 4.841149 31.411107 0.162614
2006-08-25 06:24:57 51°13.636 2°55.962 23.8609 4.841255 31.411873 0.196324
2006-08-25 06:25:02 51°13.639 2°55.954 23.5302 4.841255 31.412328 0.162614
2006-08-25 06:25:06 51°13.641 2°55.947 21.9371 4.841255 31.412328 0.162614
2006-08-25 06:25:12 51°13.645 2°55.938 20.8413 4.840939 31.41412 0.263742
2006-08-25 06:25:17 51°13.648 2°55.929 20.2319 4.801817 31.330558 0.263742
2006-08-25 06:25:22 51°13.65 2°55.921 20.0169 4.820798 31.369076 0.331161
2006-08-25 06:25:26 51°13.653 2°55.914 19.633 3.400614 21.262863 1.140187
2006-08-25 06:25:32 51°13.656 2°55.904 19.589 3.400614 21.262863 1.140187
2006-08-25 06:25:37 51°13.659 2°55.895 19.4785 4.632886 30.326456 0.668255
2006-08-25 06:25:42 51°13.661 2°55.887 19.415 4.705662 31.573969 0.39858
2006-08-25 06:25:47 51°13.663 2°55.879 19.3441 4.541707 31.06275 0.668255
2006-08-25 06:25:52 51°13.665 2°55.871 19.3643 4.286685 29.664672 0.836802
2006-08-25 06:25:57 51°13.667 2°55.863 19.3382 4.019389 28.074048 0.93793
2006-08-25 06:26:02 51°13.669 2°55.855 19.3319 3.865011 27.179768 1.039059
2006-08-25 06:26:06 51°13.671 2°55.849 19.2551 3.865011 27.179768 1.039059
2006-08-25 06:26:12 51°13.672 2°55.84 19.3122 3.713081 26.193503 1.039059
2006-08-25 06:26:17 51°13.674 2°55.832 19.2637 3.618588 25.600002 1.039059
2006-08-25 06:26:22 51°13.675 2°55.825 19.2839 3.571398 25.304369 1.039059
2006-08-25 06:26:27 51°13.677 2°55.817 19.2281 3.535376 25.075244 1.039059
2006-08-25 06:26:32 51°13.678 2°55.81 19.2502 3.519683 24.991506 1.005349
2006-08-25 06:26:36 51°13.679 2°55.804 19.1941 3.519683 24.991506 1.005349
2006-08-25 06:26:42 51°13.68 2°55.795 19.2141 3.516629 24.992739 1.039059
2006-08-25 06:26:47 51°13.681 2°55.788 19.1954 3.507571 24.949236 0.97164
2006-08-25 06:26:52 51°13.681 2°55.781 19.1857 3.505465 24.949492 1.005349
2006-08-25 06:26:56 51°13.682 2°55.775 19.2307 3.503886 24.949687 1.005349
2006-08-25 06:27:02 51°13.683 2°55.768 19.1753 3.493248 24.881415 0.97164
2006-08-25 06:27:06 51°13.683 2°55.763 19.1787 3.493248 24.881415 0.97164
2006-08-25 06:27:11 51°13.683 2°55.758 19.1594 3.484928 24.83473 1.005349
2006-08-25 06:27:16 51°13.683 2°55.753 19.1305 3.480716 24.814106 1.005349
2006-08-25 06:27:21 51°13.683 2°55.75 19.1301 3.469552 24.737776 1.039059
2006-08-25 06:27:26 51°13.683 2°55.747 19.1443 3.467446 24.725766 1.005349
2006-08-25 06:27:31 51°13.683 2°55.745 19.1605 3.455123 24.631064 1.005349
2006-08-25 06:27:36 51°13.683 2°55.744 19.1359 3.455123 24.631064 1.005349
2006-08-25 06:27:41 51°13.683 2°55.744 19.1554 3.455018 24.63775 1.039059
2006-08-25 06:27:46 51°13.684 2°55.744 19.1219 3.398149 24.197785 1.005349
2006-08-25 06:27:51 51°13.684 2°55.744 19.0923 3.445224 24.576741 1.039059
2006-08-25 06:27:56 51°13.685 2°55.745 19.0827 3.441644 24.561405 1.005349
2006-08-25 06:28:01 51°13.686 2°55.746 19.0894 3.418159 24.383117 1.039059
2006-08-25 06:28:06 51°13.687 2°55.747 19.0693 3.418159 24.383117 1.039059
2006-08-25 06:28:11 51°13.689 2°55.749 19.106 3.385618 24.129011 1.072768
2006-08-25 06:28:16 51°13.691 2°55.75 19.0849 3.332125 23.7152 1.072768
2006-08-25 06:28:20 51°13.693 2°55.751 19.069 3.323807 23.655011 1.106477
2006-08-25 06:28:26 51°13.696 2°55.752 19.0643 3.299273 23.47215 1.173896
2006-08-25 06:28:30 51°13.699 2°55.752 19.0736 3.248735 23.083619 1.140187
2006-08-25 06:28:36 51°13.703 2°55.751 19.1003 3.248735 23.083619 1.140187
2006-08-25 06:28:41 51°13.707 2°55.75 19.1023 3.22094 22.871912 1.106477
2006-08-25 06:28:46 51°13.711 2°55.748 19.1615 3.206833 22.760595 1.140187
2006-08-25 06:28:51 51°13.716 2°55.744 19.1456 3.188831 22.618863 1.140187
2006-08-25 06:28:56 51°13.72 2°55.739 19.1147 3.162723 22.420352 1.140187
2006-08-25 06:29:01 51°13.725 2°55.734 19.1238 3.139354 22.24601 1.173896
2006-08-25 06:29:06 51°13.731 2°55.728 19.2073 3.139354 22.24601 1.173896
2006-08-25 06:29:11 51°13.737 2°55.721 19.2182 3.109564 22.012593 1.241315
2006-08-25 06:29:16 51°13.743 2°55.714 19.1125 3.057778 21.604072 1.308734
2006-08-25 06:29:21 51°13.749 2°55.707 19.113 2.978109 20.977717 1.376153
2006-08-25 06:29:26 51°13.756 2°55.7 19.1707 2.907184 20.424311 1.409862
2006-08-25 06:29:31 51°13.762 2°55.692 19.1884 2.86941 20.131191 1.409862
2006-08-25 06:29:36 51°13.77 2°55.685 19.1075 2.86941 20.131191 1.409862
2006-08-25 06:29:41 51°13.777 2°55.677 19.1333 2.868884 20.120299 1.342443
2006-08-25 06:29:46 51°13.785 2°55.67 19.1086 2.910024 20.424769 1.342443
2006-08-25 06:29:51 51°13.793 2°55.663 19.1974 2.922651 20.52719 1.376153
2006-08-25 06:29:56 51°13.801 2°55.656 19.1241 2.911498 20.44794 1.376153
2006-08-25 06:30:01 51°13.81 2°55.65 19.1413 2.902448 20.373527 1.409862
2006-08-25 06:30:06 51°13.819 2°55.644 19.1228 2.902448 20.373527 1.409862
2006-08-25 06:30:10 51°13.826 2°55.639 19.1563 2.886034 20.246115 1.409862
2006-08-25 06:30:16 51°13.836 2°55.631 19.1376 2.874355 20.159086 1.376153
2006-08-25 06:30:21 51°13.845 2°55.625 19.0995 2.877932 20.19354 1.443571
2006-08-25 06:30:26 51°13.855 2°55.618 19.1507 2.870041 20.129227 1.376153
2006-08-25 06:30:31 51°13.864 2°55.612 19.162 2.883298 20.234962 1.376153
2006-08-25 06:30:36 51°13.874 2°55.605 19.1261 2.883298 20.234962 1.376153
2006-08-25 06:30:40 51°13.881 2°55.599 19.145 2.896451 20.339984 1.443571
2006-08-25 06:30:46 51°13.893 2°55.591 19.1429 2.896556 20.341142 1.376153
2006-08-25 06:30:51 51°13.902 2°55.584 19.0619 2.889296 20.282302 1.443571
2006-08-25 06:30:56 51°13.912 2°55.577 19.1212 2.857205 20.04078 1.443571
2006-08-25 06:31:01 51°13.922 2°55.57 19.1407 2.859415 20.05544 1.477281
2006-08-25 06:31:06 51°13.932 2°55.563 19.1923 2.859415 20.05544 1.477281
2006-08-25 06:31:11 51°13.942 2°55.556 19.1437 2.865622 20.101965 1.443571
2006-08-25 06:31:16 51°13.952 2°55.549 19.1791 2.863518 20.086413 1.477281
2006-08-25 06:31:21 51°13.962 2°55.542 19.0815 2.863518 20.084025 1.443571
2006-08-25 06:31:26 51°13.972 2°55.535 19.0786 2.884456 20.256279 1.443571
2006-08-25 06:31:31 51°13.982 2°55.528 19.0524 2.927492 20.588015 1.409862
2006-08-25 06:31:36 51°13.992 2°55.52 19.1373 2.927492 20.588015 1.409862
2006-08-25 06:31:41 51°14.002 2°55.514 19.1208 2.962007 20.84261 1.308734
2006-08-25 06:31:46 51°14.012 2°55.506 19.0599 3.000419 21.132533 1.376153
2006-08-25 06:31:51 51°14.022 2°55.499 19.0348 3.013995 21.237154 1.376153
2006-08-25 06:31:56 51°14.032 2°55.492 19.0704 3.0141 21.248071 1.376153
2006-08-25 06:32:00 51°14.04 2°55.487 18.9967 3.027467 21.368588 1.409862
2006-08-25 06:32:06 51°14.052 2°55.478 19.0462 3.027467 21.368588 1.409862
2006-08-25 06:32:10 51°14.059 2°55.473 19.0304 3.04578 21.520557 1.308734
2006-08-25 06:32:16 51°14.071 2°55.464 19.0563 3.075671 21.748987 1.275024
2006-08-25 06:32:21 51°14.081 2°55.458 19.0736 3.143038 22.27746 1.275024
2006-08-25 06:32:26 51°14.091 2°55.451 19.0267 3.165145 22.463359 1.308734
2006-08-25 06:32:31 51°14.1 2°55.444 18.9986 3.176514 22.557776 1.275024
2006-08-25 06:32:37 51°14.112 2°55.435 18.994 3.176514 22.557776 1.275024
2006-08-25 06:32:41 51°14.119 2°55.429 19.0422 3.182094 22.612285 1.275024
2006-08-25 06:32:46 51°14.128 2°55.422 19.0251 3.173462 22.548071 1.308734
2006-08-25 06:32:50 51°14.136 2°55.416 19.0136 3.163145 22.463385 1.275024
2006-08-25 06:32:56 51°14.147 2°55.406 19.01 3.160829 22.44027 1.275024
2006-08-25 06:33:01 51°14.156 2°55.398 18.9926 3.143565 22.310052 1.308734
2006-08-25 06:33:06 51°14.165 2°55.39 18.98 3.143565 22.310052 1.308734
2006-08-25 06:33:10 51°14.172 2°55.383 19.0244 3.134512 22.247922 1.308734
2006-08-25 06:33:16 51°14.182 2°55.372 19.0051 3.134407 22.252031 1.308734
2006-08-25 06:33:21 51°14.191 2°55.362 19.0097 3.137144 22.268524 1.241315
2006-08-25 06:33:26 51°14.199 2°55.352 18.9908 3.173988 22.559505 1.275024
2006-08-25 06:33:31 51°14.207 2°55.342 18.957 3.186726 22.662903 1.275024
2006-08-25 06:33:36 51°14.215 2°55.331 19.0049 3.186726 22.662903 1.275024
2006-08-25 06:33:41 51°14.223 2°55.32 18.9814 3.182936 22.637026 1.275024
2006-08-25 06:33:46 51°14.231 2°55.309 19.0599 3.170409 22.54182 1.275024
2006-08-25 06:33:50 51°14.237 2°55.3 18.9801 3.168409 22.52959 1.241315
2006-08-25 06:33:56 51°14.246 2°55.285 18.9861 3.152092 22.402013 1.275024
2006-08-25 06:34:01 51°14.254 2°55.272 19.0258 3.154935 22.427358 1.308734
2006-08-25 06:34:06 51°14.261 2°55.259 19.043 3.154935 22.427358 1.308734
2006-08-25 06:34:11 51°14.269 2°55.245 18.9932 3.138302 22.300787 1.275024
2006-08-25 06:34:16 51°14.277 2°55.231 18.9829 3.132934 22.260237 1.275024
2006-08-25 06:34:21 51°14.285 2°55.217 18.9593 3.137987 22.292603 1.275024
2006-08-25 06:34:26 51°14.292 2°55.202 18.9743 3.134513 22.263488 1.275024
2006-08-25 06:34:30 51°14.298 2°55.19 18.9652 3.117565 22.129646 1.275024
2006-08-25 06:34:36 51°14.308 2°55.172 18.9453 3.117565 22.129646 1.275024
2006-08-25 06:34:41 51°14.316 2°55.157 18.9866 3.145671 22.342146 1.241315
2006-08-25 06:34:46 51°14.324 2°55.142 18.9711 3.166303 22.505776 1.275024
2006-08-25 06:34:50 51°14.331 2°55.129 18.9518 3.175357 22.58449 1.241315
2006-08-25 06:34:56 51°14.341 2°55.11 18.9693 3.193254 22.733135 1.241315
2006-08-25 06:35:01 51°14.349 2°55.093 18.931 3.22789 23.00938 1.207606
2006-08-25 06:35:06 51°14.357 2°55.077 19.002 3.22789 23.00938 1.207606
2006-08-25 06:35:10 51°14.365 2°55.064 18.9477 3.254422 23.22066 1.207606
2006-08-25 06:35:16 51°14.375 2°55.043 18.9561 3.263161 23.293106 1.173896
2006-08-25 06:35:21 51°14.384 2°55.026 18.9189 3.294116 23.535677 1.140187
2006-08-25 06:35:26 51°14.393 2°55.008 18.9176 3.328758 23.810518 1.173896
2006-08-25 06:35:30 51°14.401 2°54.994 18.8878 3.3455 23.944136 1.207606
2006-08-25 06:35:36 51°14.411 2°54.972 18.89 3.3455 23.944136 1.207606
2006-08-25 06:35:41 51°14.419 2°54.952 18.8792 3.374985 24.177935 1.140187
2006-08-25 06:35:46 51°14.426 2°54.933 18.9063 3.40068 24.380726 1.173896
2006-08-25 06:35:51 51°14.434 2°54.913 18.9102 3.426692 24.59044 1.140187
2006-08-25 06:35:56 51°14.442 2°54.893 18.9044 3.452494 24.803436 1.140187
2006-08-25 06:36:01 51°14.449 2°54.872 18.8699 3.237261 23.10998 1.140187
2006-08-25 06:36:06 51°14.456 2°54.85 18.8549 3.237261 23.10998 1.140187
2006-08-25 06:36:11 51°14.462 2°54.828 18.8485 3.507788 25.262079 1.140187
2006-08-25 06:36:16 51°14.468 2°54.805 18.8352 3.544337 25.562037 1.106477
2006-08-25 06:36:21 51°14.475 2°54.782 18.8234 3.590684 25.937939 1.072768
2006-08-25 06:36:26 51°14.481 2°54.759 18.8568 3.635769 26.297361 1.072768
2006-08-25 06:36:31 51°14.488 2°54.736 18.7922 3.653362 26.437121 1.072768
2006-08-25 06:36:36 51°14.494 2°54.713 18.8027 3.653362 26.437121 1.072768
2006-08-25 06:36:40 51°14.5 2°54.694 18.7809 3.706458 26.871458 1.039059
2006-08-25 06:36:45 51°14.506 2°54.671 18.7648 3.733745 27.099434 1.039059
2006-08-25 06:36:51 51°14.514 2°54.643 18.8104 3.771358 27.411104 1.039059
2006-08-25 06:36:56 51°14.522 2°54.619 18.7709 3.780314 27.493777 1.005349
2006-08-25 06:37:00 51°14.527 2°54.6 18.7651 3.831838 27.913164 0.97164
2006-08-25 06:37:06 51°14.536 2°54.573 18.763 3.831838 27.913164 0.97164
2006-08-25 06:37:11 51°14.543 2°54.549 18.785 3.885262 28.356215 1.039059
2006-08-25 06:37:16 51°14.55 2°54.525 18.7711 3.920248 28.648135 1.005349
2006-08-25 06:37:21 51°14.556 2°54.501 18.7856 3.98274 29.165138 0.93793
2006-08-25 06:37:26 51°14.564 2°54.477 18.8051 4.023315 29.497055 0.97164
2006-08-25 06:37:31 51°14.57 2°54.453 18.785 4.061889 29.817788 0.97164
2006-08-25 06:37:36 51°14.578 2°54.429 18.7658 4.061889 29.817788 0.97164
2006-08-25 06:37:41 51°14.585 2°54.405 18.7638 4.103416 30.165383 0.97164
2006-08-25 06:37:46 51°14.593 2°54.382 18.7555 4.131664 30.401088 0.97164
2006-08-25 06:37:51 51°14.6 2°54.357 18.7608 4.160228 30.632846 0.97164
2006-08-25 06:37:56 51°14.607 2°54.333 18.7831 4.187845 30.860759 0.97164
2006-08-25 06:38:01 51°14.614 2°54.309 18.7595 4.215779 31.087246 0.97164
2006-08-25 06:38:06 51°14.621 2°54.284 18.7725 4.215779 31.087246 0.97164
2006-08-25 06:38:11 51°14.628 2°54.26 18.7422 4.243608 31.316853 0.97164
2006-08-25 06:38:16 51°14.634 2°54.235 18.7426 4.265218 31.499795 0.97164
2006-08-25 06:38:20 51°14.64 2°54.214 18.7599 4.299585 31.790978 0.97164
2006-08-25 06:38:25 51°14.646 2°54.191 18.7502 4.306016 31.847381 0.93793
2006-08-25 06:38:31 51°14.652 2°54.162 18.7564 4.326889 32.015434 0.97164
2006-08-25 06:38:36 51°14.659 2°54.135 18.745 4.326889 32.015434 0.97164
2006-08-25 06:38:40 51°14.664 2°54.116 18.7487 4.357146 32.271228 0.97164
2006-08-25 06:38:46 51°14.672 2°54.087 18.7297 4.371062 32.389229 0.93793
2006-08-25 06:38:51 51°14.679 2°54.063 18.725 4.371062 32.393707 0.93793
2006-08-25 06:38:56 51°14.686 2°54.038 18.7318 4.387403 32.527408 0.904221
2006-08-25 06:39:01 51°14.694 2°54.014 18.7283 4.391726 32.560981 0.904221
2006-08-25 06:39:06 51°14.701 2°53.991 18.7346 4.391726 32.560981 0.904221
2006-08-25 06:39:11 51°14.708 2°53.967 18.7232 4.400688 32.63583 0.870512
2006-08-25 06:39:16 51°14.715 2°53.943 18.7378 4.416186 32.767193 0.870512
2006-08-25 06:39:21 51°14.723 2°53.919 18.7283 4.422828 32.82628 0.870512
2006-08-25 06:39:26 51°14.73 2°53.896 18.7223 4.447394 33.039403 0.836802
2006-08-25 06:39:31 51°14.737 2°53.872 18.7231 4.444337 33.019137 0.836802
2006-08-25 06:39:36 51°14.745 2°53.849 18.7101 4.444337 33.019137 0.836802
2006-08-25 06:39:41 51°14.751 2°53.825 18.7159 4.452982 33.090994 0.836802
2006-08-25 06:39:46 51°14.758 2°53.801 18.7248 4.458359 33.134551 0.870512
2006-08-25 06:39:51 51°14.765 2°53.777 18.7253 4.463842 33.178992 0.870512
2006-08-25 06:39:56 51°14.772 2°53.753 18.7178 4.469325 33.227462 0.836802
2006-08-25 06:40:01 51°14.779 2°53.729 18.7126 4.465002 33.193805 0.870512
2006-08-25 06:40:06 51°14.786 2°53.706 18.7153 4.465002 33.193805 0.870512
2006-08-25 06:40:11 51°14.793 2°53.682 18.7217 4.470274 33.240533 0.836802
2006-08-25 06:40:16 51°14.8 2°53.658 18.7218 4.474175 33.277599 0.836802
2006-08-25 06:40:21 51°14.807 2°53.634 18.7166 4.484929 33.365385 0.803093
2006-08-25 06:40:26 51°14.814 2°53.611 18.7179 4.483348 33.351641 0.803093
2006-08-25 06:40:30 51°14.82 2°53.592 18.7132 4.479552 33.318316 0.803093
2006-08-25 06:40:36 51°14.829 2°53.563 18.7122 4.479552 33.318316 0.803093
2006-08-25 06:40:41 51°14.837 2°53.54 18.7139 4.496527 33.463699 0.769383
2006-08-25 06:40:46 51°14.844 2°53.516 18.715 4.496317 33.461363 0.803093
2006-08-25 06:40:50 51°14.85 2°53.498 18.7119 4.500218 33.494439 0.803093
2006-08-25 06:40:56 51°14.858 2°53.47 18.7112 4.490517 33.414225 0.735674
2006-08-25 06:41:01 51°14.866 2°53.446 18.7122 4.508442 33.565284 0.769383
2006-08-25 06:41:06 51°14.873 2°53.423 18.7172 4.508442 33.565284 0.769383
2006-08-25 06:41:10 51°14.878 2°53.404 18.7139 4.512027 33.596907 0.735674
2006-08-25 06:41:16 51°14.887 2°53.375 18.7102 4.499585 33.494968 0.735674
2006-08-25 06:41:21 51°14.895 2°53.351 18.7124 4.519513 33.660479 0.701965
2006-08-25 06:41:25 51°14.9 2°53.333 18.7184 4.514663 33.620043 0.701965
2006-08-25 06:41:31 51°14.908 2°53.304 18.7207 4.523204 33.691835 0.668255
2006-08-25 06:41:36 51°14.915 2°53.279 18.7072 4.523204 33.691835 0.668255
2006-08-25 06:41:41 51°14.922 2°53.256 18.7056 4.525418 33.7103 0.701965
2006-08-25 06:41:46 51°14.929 2°53.231 18.7098 4.526367 33.717047 0.668255
2006-08-25 06:41:51 51°14.935 2°53.207 18.7077 4.532272 33.766296 0.668255
2006-08-25 06:41:55 51°14.94 2°53.187 18.7033 4.533537 33.77802 0.668255
2006-08-25 06:42:01 51°14.948 2°53.157 18.7012 4.534169 33.781543 0.668255
2006-08-25 06:42:06 51°14.955 2°53.133 18.7074 4.534169 33.781543 0.668255
2006-08-25 06:42:10 51°14.96 2°53.113 18.704 4.53554 33.794149 0.701965
2006-08-25 06:42:16 51°14.969 2°53.084 18.7036 4.538176 33.818484 0.668255
2006-08-25 06:42:21 51°14.976 2°53.06 18.7075 4.538914 33.826987 0.668255
2006-08-25 06:42:26 51°14.983 2°53.035 18.7093 4.54018 33.837546 0.634546
2006-08-25 06:42:31 51°14.99 2°53.01 18.7069 4.540812 33.845171 0.668255
2006-08-25 06:42:36 51°14.996 2°52.987 18.707 4.540812 33.845171 0.668255
2006-08-25 06:42:41 51°15.004 2°52.961 18.7046 4.542289 33.856319 0.634546
2006-08-25 06:42:46 51°15.011 2°52.937 18.7094 4.543027 33.863653 0.668255
2006-08-25 06:42:51 51°15.017 2°52.913 18.7019 4.544081 33.874802 0.668255
2006-08-25 06:42:56 51°15.024 2°52.887 18.7032 4.544292 33.875975 0.634546
2006-08-25 06:43:01 51°15.03 2°52.863 18.7056 4.544187 33.873921 0.668255
2006-08-25 06:43:06 51°15.036 2°52.837 18.7086 4.544187 33.873921 0.668255
2006-08-25 06:43:11 51°15.041 2°52.811 18.7068 4.545241 33.882136 0.634546
2006-08-25 06:43:16 51°15.047 2°52.786 18.7031 4.545663 33.88507 0.634546
2006-08-25 06:43:20 51°15.052 2°52.765 18.7058 4.54619 33.889471 0.634546
2006-08-25 06:43:26 51°15.059 2°52.734 18.7088 4.547877 33.906492 0.567127
2006-08-25 06:43:30 51°15.063 2°52.713 18.7033 4.548615 33.912067 0.600836
2006-08-25 06:43:36 51°15.07 2°52.684 18.7065 4.548615 33.912067 0.600836
2006-08-25 06:43:41 51°15.076 2°52.657 18.7109 4.549142 33.916469 0.600836
2006-08-25 06:43:46 51°15.082 2°52.632 18.7074 4.549142 33.914118 0.600836
2006-08-25 06:43:50 51°15.087 2°52.612 18.7024 4.550935 33.930847 0.634546
2006-08-25 06:43:56 51°15.094 2°52.581 18.71 4.551778 33.938479 0.634546
2006-08-25 06:44:01 51°15.099 2°52.556 18.71 4.552727 33.946403 0.567127
2006-08-25 06:44:06 51°15.105 2°52.529 18.7105 4.552727 33.946403 0.567127
2006-08-25 06:44:11 51°15.11 2°52.504 18.709 4.554309 33.961376 0.600836
2006-08-25 06:44:16 51°15.116 2°52.478 18.7104 4.555047 33.966363 0.567127
2006-08-25 06:44:21 51°15.12 2°52.453 18.713 4.555469 33.96812 0.600836
2006-08-25 06:44:26 51°15.126 2°52.426 18.7091 4.553782 33.955208 0.634546
2006-08-25 06:44:30 51°15.13 2°52.406 18.7087 4.556945 33.980448 0.600836
2006-08-25 06:44:36 51°15.137 2°52.376 18.7074 4.556945 33.980448 0.600836
2006-08-25 06:44:41 51°15.143 2°52.349 18.7029 4.557051 33.98074 0.600836
2006-08-25 06:44:46 51°15.148 2°52.325 18.7074 4.555996 33.971346 0.600836
2006-08-25 06:44:51 51°15.155 2°52.299 18.709 4.558843 33.995121 0.634546
2006-08-25 06:44:56 51°15.161 2°52.274 18.7128 4.560003 34.004219 0.567127
2006-08-25 06:45:01 51°15.167 2°52.249 18.7038 4.55937 34.000703 0.600836
2006-08-25 06:45:06 51°15.173 2°52.224 18.7058 4.55937 34.000703 0.600836
2006-08-25 06:45:11 51°15.179 2°52.199 18.7072 4.562006 34.023311 0.600836
2006-08-25 06:45:16 51°15.185 2°52.173 18.7032 4.564221 34.042398 0.600836
2006-08-25 06:45:21 51°15.191 2°52.148 18.7044 4.56169 34.021258 0.600836
2006-08-25 06:45:26 51°15.197 2°52.123 18.7013 4.562006 34.0239 0.634546
2006-08-25 06:45:31 51°15.202 2°52.097 18.7006 4.56169 34.020079 0.600836
2006-08-25 06:45:36 51°15.208 2°52.071 18.704 4.56169 34.020079 0.600836
2006-08-25 06:45:41 51°15.214 2°52.046 18.6987 4.56285 34.030947 0.600836
2006-08-25 06:45:46 51°15.22 2°52.021 18.7012 4.563272 34.03565 0.600836
2006-08-25 06:45:51 51°15.226 2°51.995 18.6999 4.562639 34.032134 0.600836
2006-08-25 06:45:56 51°15.231 2°51.969 18.6994 4.561479 34.021854 0.634546
2006-08-25 06:46:01 51°15.237 2°51.943 18.7012 4.563588 34.041242 0.634546
2006-08-25 06:46:06 51°15.243 2°51.918 18.7004 4.563588 34.041242 0.634546
2006-08-25 06:46:11 51°15.248 2°51.891 18.704 4.561585 34.025683 0.634546
2006-08-25 06:46:16 51°15.254 2°51.866 18.7013 4.561479 34.025392 0.634546
2006-08-25 06:46:20 51°15.258 2°51.845 18.6938 4.560636 34.019524 0.600836
2006-08-25 06:46:26 51°15.263 2°51.813 18.6953 4.560319 34.016292 0.600836
2006-08-25 06:46:31 51°15.267 2°51.786 18.6942 4.558316 34.000144 0.600836
2006-08-25 06:46:35 51°15.271 2°51.766 18.6971 4.558316 34.000144 0.600836
2006-08-25 06:46:41 51°15.276 2°51.733 18.7051 4.558 33.997501 0.600836
2006-08-25 06:46:46 51°15.279 2°51.706 18.6994 4.557683 33.995448 0.600836
2006-08-25 06:46:51 51°15.283 2°51.679 18.6944 4.556102 33.982236 0.634546
2006-08-25 06:46:55 51°15.285 2°51.657 18.6948 4.556313 33.985175 0.634546
2006-08-25 06:47:02 51°15.289 2°51.619 18.6952 4.555047 33.975194 0.634546
2006-08-25 06:47:06 51°15.291 2°51.597 18.695 4.555047 33.975194 0.634546
2006-08-25 06:47:11 51°15.292 2°51.569 18.6923 4.553255 33.961398 0.600836
2006-08-25 06:47:16 51°15.292 2°51.542 18.6942 4.553466 33.962571 0.634546
2006-08-25 06:47:21 51°15.291 2°51.513 18.6962 4.553466 33.961982 0.634546
2006-08-25 06:47:26 51°15.29 2°51.485 18.6931 4.5522 33.952002 0.634546
2006-08-25 06:47:31 51°15.288 2°51.457 18.6932 4.551462 33.948191 0.600836
2006-08-25 06:47:36 51°15.285 2°51.428 18.6936 4.551462 33.948191 0.600836
2006-08-25 06:47:41 51°15.283 2°51.401 18.693 4.551251 33.946429 0.634546
2006-08-25 06:47:46 51°15.28 2°51.372 18.6953 4.551251 33.947606 0.668255
2006-08-25 06:47:51 51°15.277 2°51.345 18.6944 4.551146 33.946725 0.701965
2006-08-25 06:47:56 51°15.274 2°51.317 18.695 4.550935 33.945552 0.634546
2006-08-25 06:48:01 51°15.272 2°51.289 18.6991 4.550092 33.939094 0.634546
2006-08-25 06:48:06 51°15.269 2°51.26 18.6946 4.550092 33.939094 0.634546
2006-08-25 06:48:11 51°15.267 2°51.232 18.6915 4.550092 33.939683 0.634546
2006-08-25 06:48:16 51°15.265 2°51.205 18.6954 4.549248 33.930283 0.634546
2006-08-25 06:48:21 51°15.264 2°51.176 18.6937 4.54851 33.924118 0.668255
2006-08-25 06:48:26 51°15.262 2°51.148 18.6971 4.548615 33.924411 0.634546
2006-08-25 06:48:31 51°15.26 2°51.119 18.6948 4.547983 33.919715 0.668255
2006-08-25 06:48:36 51°15.258 2°51.091 18.6939 4.547983 33.919715 0.668255
2006-08-25 06:48:41 51°15.257 2°51.063 18.6908 4.546612 33.906503 0.634546
2006-08-25 06:48:46 51°15.256 2°51.035 18.6937 4.546928 33.909733 0.634546
2006-08-25 06:48:51 51°15.254 2°51.006 18.6974 4.545452 33.89858 0.634546
2006-08-25 06:48:56 51°15.254 2°50.978 18.7012 4.545663 33.900341 0.634546
2006-08-25 06:49:01 51°15.253 2°50.949 18.6931 4.544609 33.889773 0.600836
2006-08-25 06:49:06 51°15.252 2°50.921 18.6974 4.544609 33.889773 0.600836
2006-08-25 06:49:11 51°15.252 2°50.892 18.6992 4.545136 33.895938 0.600836
2006-08-25 06:49:16 51°15.25 2°50.865 18.7003 4.546085 33.903276 0.634546
2006-08-25 06:49:21 51°15.25 2°50.836 18.6975 4.543976 33.886252 0.634546
2006-08-25 06:49:26 51°15.248 2°50.808 18.6946 4.544609 33.891535 0.600836
2006-08-25 06:49:31 51°15.247 2°50.779 18.6922 4.54366 33.882436 0.634546
2006-08-25 06:49:36 51°15.246 2°50.751 18.6961 4.54366 33.882436 0.634546
2006-08-25 06:49:41 51°15.245 2°50.722 18.6956 4.543343 33.880969 0.668255
2006-08-25 06:49:46 51°15.244 2°50.694 18.6974 4.543238 33.878914 0.634546
2006-08-25 06:49:51 51°15.243 2°50.665 18.6931 4.543238 33.876565 0.634546
2006-08-25 06:49:56 51°15.243 2°50.638 18.7001 4.543343 33.87862 0.668255
2006-08-25 06:50:01 51°15.241 2°50.609 18.6996 4.542921 33.87686 0.600836
2006-08-25 06:50:06 51°15.24 2°50.581 18.7002 4.542921 33.87686 0.600836
2006-08-25 06:50:11 51°15.239 2°50.554 18.7007 4.544187 33.888601 0.600836
2006-08-25 06:50:16 51°15.238 2°50.525 18.7028 4.541867 33.869816 0.600836
2006-08-25 06:50:21 51°15.236 2°50.498 18.702 4.543132 33.879208 0.634546
2006-08-25 06:50:26 51°15.234 2°50.469 18.702 4.541973 33.868935 0.634546
2006-08-25 06:50:30 51°15.233 2°50.447 18.7028 4.542711 33.874512 0.634546
2006-08-25 06:50:36 51°15.233 2°50.413 18.707 4.542711 33.874512 0.634546
2006-08-25 06:50:41 51°15.232 2°50.386 18.7071 4.543449 33.8795 0.600836
2006-08-25 06:50:46 51°15.231 2°50.357 18.7054 4.543343 33.87862 0.668255
2006-08-25 06:50:51 51°15.23 2°50.329 18.7071 4.541762 33.86424 0.668255
2006-08-25 06:50:56 51°15.229 2°50.302 18.706 4.54366 33.880674 0.668255
2006-08-25 06:51:01 51°15.228 2°50.273 18.7095 4.542921 33.874511 0.668255
2006-08-25 06:51:06 51°15.228 2°50.245 18.7132 4.542921 33.874511 0.668255
2006-08-25 06:51:11 51°15.228 2°50.217 18.708 4.5425 33.868641 0.634546
2006-08-25 06:51:16 51°15.227 2°50.189 18.7099 4.543027 33.871869 0.634546
2006-08-25 06:51:21 51°15.227 2°50.16 18.7119 4.543976 33.878618 0.634546
2006-08-25 06:51:26 51°15.226 2°50.133 18.7102 4.542816 33.868347 0.634546
2006-08-25 06:51:31 51°15.226 2°50.105 18.7087 4.543343 33.872749 0.600836
2006-08-25 06:51:35 51°15.225 2°50.082 18.7102 4.543343 33.872749 0.600836
2006-08-25 06:51:41 51°15.226 2°50.047 18.7093 4.542394 33.86424 0.668255
2006-08-25 06:51:46 51°15.226 2°50.02 18.7098 4.543343 33.871575 0.634546
2006-08-25 06:51:51 51°15.225 2°49.992 18.712 4.544292 33.87891 0.600836
2006-08-25 06:51:56 51°15.226 2°49.963 18.7101 4.543027 33.867174 0.600836
2006-08-25 06:52:01 51°15.226 2°49.936 18.7095 4.544714 33.881844 0.600836
2006-08-25 06:52:06 51°15.226 2°49.908 18.7115 4.544714 33.881844 0.600836
2006-08-25 06:52:11 51°15.225 2°49.879 18.7124 4.542921 33.86688 0.600836
2006-08-25 06:52:16 51°15.226 2°49.852 18.7104 4.544503 33.879497 0.600836
2006-08-25 06:52:21 51°15.225 2°49.824 18.7168 4.545768 33.891235 0.634546
2006-08-25 06:52:25 51°15.225 2°49.801 18.7176 4.546085 33.892701 0.634546
2006-08-25 06:52:31 51°15.226 2°49.767 18.7165 4.545346 33.886539 0.600836
2006-08-25 06:52:36 51°15.225 2°49.739 18.7171 4.545346 33.886539 0.600836
2006-08-25 06:52:41 51°15.226 2°49.71 18.7171 4.545241 33.886246 0.600836
2006-08-25 06:52:46 51°15.225 2°49.683 18.7226 4.545663 33.88918 0.600836
2006-08-25 06:52:50 51°15.225 2°49.661 18.7206 4.547983 33.908547 0.567127
2006-08-25 06:52:56 51°15.225 2°49.626 18.7209 4.548404 33.912069 0.600836
2006-08-25 06:53:01 51°15.224 2°49.598 18.7204 4.540391 33.84341 0.600836
2006-08-25 06:53:06 51°15.224 2°49.569 18.7193 4.540391 33.84341 0.600836
2006-08-25 06:53:11 51°15.224 2°49.542 18.7187 4.538176 33.823758 0.600836
2006-08-25 06:53:16 51°15.224 2°49.514 18.7217 4.550197 33.922334 0.600836
2006-08-25 06:53:20 51°15.224 2°49.492 18.7222 4.54988 33.919105 0.567127
2006-08-25 06:53:26 51°15.223 2°49.458 18.7229 4.551673 33.933483 0.567127
2006-08-25 06:53:31 51°15.223 2°49.429 18.7279 4.551989 33.935536 0.567127
2006-08-25 06:53:36 51°15.223 2°49.401 18.7284 4.551989 33.935536 0.567127
2006-08-25 06:53:41 51°15.223 2°49.373 18.7269 4.552833 33.942579 0.567127
2006-08-25 06:53:46 51°15.223 2°49.345 18.7295 4.553676 33.949622 0.567127
2006-08-25 06:53:51 51°15.223 2°49.316 18.7301 4.554204 33.954612 0.567127
2006-08-25 06:53:56 51°15.223 2°49.288 18.7288 4.555152 33.960183 0.533418
2006-08-25 06:54:01 51°15.223 2°49.26 18.7297 4.555891 33.967522 0.533418
2006-08-25 06:54:06 51°15.223 2°49.232 18.7308 4.555891 33.967522 0.533418
2006-08-25 06:54:11 51°15.222 2°49.204 18.7285 4.555996 33.966638 0.567127
2006-08-25 06:54:16 51°15.222 2°49.175 18.7321 4.556945 33.972207 0.567127
2006-08-25 06:54:20 51°15.222 2°49.152 18.7318 4.557683 33.976016 0.533418
2006-08-25 06:54:26 51°15.22 2°49.118 18.727 4.558316 33.98071 0.533418
2006-08-25 06:54:30 51°15.22 2°49.096 18.7255 4.559265 33.98981 0.533418
2006-08-25 06:54:36 51°15.22 2°49.062 18.7233 4.559265 33.98981 0.533418
2006-08-25 06:54:41 51°15.22 2°49.035 18.7247 4.560214 33.996557 0.533418
2006-08-25 06:54:46 51°15.22 2°49.005 18.7251 4.560952 34.003898 0.567127
2006-08-25 06:54:50 51°15.22 2°48.983 18.7261 4.560952 34.00272 0.533418
2006-08-25 06:54:56 51°15.219 2°48.949 18.7273 4.562006 34.009168 0.600836
2006-08-25 06:55:01 51°15.219 2°48.921 18.7276 4.563799 34.02119 0.600836
2006-08-25 06:55:06 51°15.219 2°48.893 18.7292 4.563799 34.02119 0.600836
2006-08-25 06:55:11 51°15.218 2°48.866 18.7323 4.566013 34.040858 0.567127
2006-08-25 06:55:16 51°15.218 2°48.837 18.7353 4.567806 34.056417 0.567127
2006-08-25 06:55:21 51°15.218 2°48.809 18.738 4.568755 34.064932 0.567127
2006-08-25 06:55:26 51°15.218 2°48.781 18.7398 4.570442 34.080203 0.567127
2006-08-25 06:55:31 51°15.218 2°48.753 18.7417 4.570969 34.082836 0.567127
2006-08-25 06:55:36 51°15.218 2°48.725 18.7426 4.570969 34.082836 0.567127
2006-08-25 06:55:41 51°15.218 2°48.697 18.7438 4.571812 34.089291 0.567127
2006-08-25 06:55:45 51°15.217 2°48.675 18.7451 4.572445 34.093394 0.600836
2006-08-25 06:55:51 51°15.217 2°48.641 18.7477 4.573183 34.097197 0.567127
2006-08-25 06:55:56 51°15.216 2°48.613 18.7486 4.574027 34.103652 0.567127
2006-08-25 06:56:01 51°15.216 2°48.585 18.7487 4.575503 34.113619 0.567127
2006-08-25 06:56:05 51°15.216 2°48.563 18.7505 4.575503 34.113619 0.567127
2006-08-25 06:56:11 51°15.216 2°48.53 18.7494 4.57603 34.11625 0.533418
2006-08-25 06:56:15 51°15.216 2°48.507 18.7532 4.577084 34.122693 0.533418
2006-08-25 06:56:21 51°15.215 2°48.473 18.7525 4.577295 34.123273 0.533418
2006-08-25 06:56:26 51°15.215 2°48.445 18.7506 4.577928 34.126784 0.567127
2006-08-25 06:56:31 51°15.215 2°48.417 18.751 4.578139 34.127363 0.567127
2006-08-25 06:56:36 51°15.215 2°48.389 18.752 4.578139 34.127363 0.567127
2006-08-25 06:56:41 51°15.215 2°48.361 18.752 4.578455 34.128823 0.533418
2006-08-25 06:56:46 51°15.215 2°48.333 18.752 4.578877 34.131754 0.533418
2006-08-25 06:56:51 51°15.214 2°48.305 18.7512 4.579088 34.131743 0.533418
2006-08-25 06:56:56 51°15.214 2°48.276 18.7515 4.579193 34.132624 0.567127
2006-08-25 06:57:01 51°15.214 2°48.249 18.7525 4.579193 34.132033 0.567127
2006-08-25 06:57:05 51°15.214 2°48.226 18.7534 4.579193 34.132033 0.567127
2006-08-25 06:57:11 51°15.213 2°48.193 18.752 4.579615 34.136145 0.533418
2006-08-25 06:57:16 51°15.214 2°48.165 18.7513 4.579299 34.133504 0.533418
2006-08-25 06:57:21 51°15.214 2°48.137 18.7507 4.580037 34.140258 0.567127
2006-08-25 06:57:25 51°15.215 2°48.115 18.7518 4.580248 34.140837 0.499708
2006-08-25 06:57:31 51°15.215 2°48.081 18.7526 4.580037 34.139076 0.499708
2006-08-25 06:57:36 51°15.216 2°48.053 18.7548 4.580037 34.139076 0.499708
2006-08-25 06:57:41 51°15.217 2°48.026 18.7556 4.580564 34.14407 0.533418
2006-08-25 06:57:45 51°15.217 2°48.004 18.7547 4.580775 34.144649 0.499708
2006-08-25 06:57:51 51°15.218 2°47.971 18.7562 4.581829 34.154045 0.499708
2006-08-25 06:57:55 51°15.218 2°47.949 18.7565 4.582884 34.162851 0.533418
2006-08-25 06:58:01 51°15.218 2°47.916 18.7549 4.582884 34.161668 0.499708
2006-08-25 06:58:05 51°15.219 2°47.894 18.7573 4.582884 34.161668 0.499708
2006-08-25 06:58:11 51°15.219 2°47.861 18.7538 4.583306 34.165782 0.499708
2006-08-25 06:58:16 51°15.217 2°47.834 18.7554 4.583305 34.164599 0.499708
2006-08-25 06:58:21 51°15.217 2°47.805 18.7566 4.583833 34.167819 0.533418
2006-08-25 06:58:26 51°15.217 2°47.778 18.7539 4.584149 34.169869 0.499708
2006-08-25 06:58:31 51°15.217 2°47.751 18.7538 4.584887 34.176033 0.465999
2006-08-25 06:58:35 51°15.217 2°47.729 18.752 4.584887 34.176033 0.465999
2006-08-25 06:58:41 51°15.218 2°47.696 18.7516 4.585309 34.178964 0.465999
2006-08-25 06:58:46 51°15.218 2°47.669 18.7502 4.58552 34.183091 0.465999
2006-08-25 06:58:51 51°15.219 2°47.641 18.7519 4.586152 34.187783 0.465999
2006-08-25 06:58:56 51°15.219 2°47.614 18.7483 4.586469 34.189242 0.432289
2006-08-25 06:59:01 51°15.22 2°47.585 18.7513 4.586785 34.191884 0.432289
2006-08-25 06:59:05 51°15.22 2°47.563 18.7494 4.586785 34.191884 0.432289
2006-08-25 06:59:11 51°15.22 2°47.531 18.7493 4.587101 34.195117 0.499708
2006-08-25 06:59:16 51°15.221 2°47.503 18.7476 4.587629 34.200112 0.432289
2006-08-25 06:59:21 51°15.22 2°47.475 18.746 4.588051 34.204819 0.432289
2006-08-25 06:59:25 51°15.22 2°47.453 18.7459 4.588261 34.207173 0.432289
2006-08-25 06:59:31 51°15.22 2°47.42 18.75 4.588894 34.213049 0.432289
2006-08-25 06:59:35 51°15.22 2°47.397 18.749 4.588894 34.213049 0.432289
2006-08-25 06:59:41 51°15.22 2°47.365 18.7494 4.589738 34.220096 0.432289
2006-08-25 06:59:46 51°15.22 2°47.337 18.75 4.589316 34.217757 0.432289
2006-08-25 06:59:51 51°15.22 2°47.309 18.7501 4.589843 34.223346 0.39858
2006-08-25 06:59:56 51°15.221 2°47.282 18.7483 4.59037 34.228343 0.432289
2006-08-25 07:00:01 51°15.221 2°47.255 18.7487 4.59037 34.22775 0.432289
2006-08-25 07:00:06 51°15.221 2°47.227 18.752 4.59037 34.22775 0.432289
2006-08-25 07:00:11 51°15.221 2°47.199 18.7528 4.590792 34.231867 0.432289
2006-08-25 07:00:16 51°15.221 2°47.171 18.7533 4.591425 34.234189 0.432289
2006-08-25 07:00:21 51°15.221 2°47.144 18.7569 4.590792 34.230681 0.39858
2006-08-25 07:00:26 51°15.222 2°47.116 18.7545 4.591425 34.235967 0.39858
2006-08-25 07:00:31 51°15.223 2°47.089 18.7553 4.592163 34.242726 0.39858
2006-08-25 07:00:35 51°15.224 2°47.066 18.7553 4.592163 34.242726 0.39858
2006-08-25 07:00:41 51°15.225 2°47.034 18.755 4.591847 34.240083 0.39858
2006-08-25 07:00:46 51°15.225 2°47.006 18.7572 4.592058 34.24066 0.39858
2006-08-25 07:00:50 51°15.227 2°46.984 18.7592 4.592268 34.240643 0.39858
2006-08-25 07:00:56 51°15.227 2°46.951 18.7632 4.592374 34.240339 0.39858
2006-08-25 07:01:01 51°15.228 2°46.924 18.7597 4.593006 34.245031 0.39858
2006-08-25 07:01:05 51°15.228 2°46.901 18.7616 4.593006 34.245031 0.39858
2006-08-25 07:01:11 51°15.229 2°46.869 18.7588 4.593534 34.249436 0.39858
2006-08-25 07:01:16 51°15.229 2°46.84 18.7597 4.59385 34.251486 0.364871
2006-08-25 07:01:21 51°15.23 2°46.813 18.7622 4.594166 34.253535 0.39858
2006-08-25 07:01:26 51°15.231 2°46.785 18.7645 4.594377 34.254704 0.39858
2006-08-25 07:01:31 51°15.231 2°46.757 18.766 4.594166 34.25235 0.364871
2006-08-25 07:01:36 51°15.232 2°46.73 18.7683 4.594166 34.25235 0.364871
2006-08-25 07:01:41 51°15.233 2°46.701 18.7698 4.594694 34.255568 0.39858
2006-08-25 07:01:45 51°15.233 2°46.679 18.7703 4.594588 34.254687 0.39858
2006-08-25 07:01:51 51°15.234 2°46.646 18.7729 4.594483 34.254399 0.39858
2006-08-25 07:01:56 51°15.234 2°46.619 18.7744 4.594272 34.253823 0.39858
2006-08-25 07:02:01 51°15.235 2°46.591 18.7737 4.595432 34.259955 0.39858
2006-08-25 07:02:05 51°15.235 2°46.569 18.7768 4.595432 34.259955 0.39858
2006-08-25 07:02:11 51°15.236 2°46.535 18.7766 4.595959 34.261988 0.39858
2006-08-25 07:02:16 51°15.237 2°46.507 18.7763 4.595642 34.25816 0.364871
2006-08-25 07:02:21 51°15.237 2°46.479 18.7776 4.596064 34.259905 0.364871
2006-08-25 07:02:26 51°15.238 2°46.451 18.7745 4.59617 34.259007 0.364871
2006-08-25 07:02:31 51°15.238 2°46.424 18.7755 4.597435 34.267796 0.364871
2006-08-25 07:02:36 51°15.239 2°46.395 18.7749 4.597435 34.267796 0.364871
2006-08-25 07:02:41 51°15.24 2°46.368 18.7754 4.59638 34.25662 0.39858
2006-08-25 07:02:46 51°15.24 2°46.34 18.7779 4.597013 34.26131 0.39858
2006-08-25 07:02:51 51°15.241 2°46.312 18.7767 4.597751 34.266289 0.39858
2006-08-25 07:02:55 51°15.242 2°46.29 18.7778 4.597751 34.266289 0.364871
2006-08-25 07:03:01 51°15.243 2°46.256 18.7776 4.598489 34.272453 0.39858
2006-08-25 07:03:06 51°15.243 2°46.228 18.7785 4.598489 34.272453 0.39858
2006-08-25 07:03:11 51°15.244 2°46.199 18.7779 4.598068 34.268338 0.39858
2006-08-25 07:03:16 51°15.245 2°46.172 18.7791 4.598489 34.272453 0.364871
2006-08-25 07:03:21 51°15.245 2°46.144 18.7808 4.5987 34.273621 0.364871
2006-08-25 07:03:26 51°15.246 2°46.115 18.7793 4.598384 34.269794 0.364871
2006-08-25 07:03:31 51°15.247 2°46.088 18.7794 4.598806 34.273316 0.364871
2006-08-25 07:03:36 51°15.247 2°46.06 18.7809 4.598806 34.273316 0.364871
2006-08-25 07:03:41 51°15.248 2°46.032 18.7803 4.5987 34.272435 0.364871
2006-08-25 07:03:46 51°15.249 2°46.005 18.7834 4.599227 34.276838 0.39858
2006-08-25 07:03:51 51°15.249 2°45.976 18.7827 4.598595 34.272148 0.39858
2006-08-25 07:03:55 51°15.249 2°45.954 18.7833 4.599122 34.274772 0.364871
2006-08-25 07:04:01 51°15.25 2°45.921 18.784 4.598911 34.272418 0.39858
2006-08-25 07:04:06 51°15.251 2°45.893 18.7861 4.598911 34.272418 0.39858
2006-08-25 07:04:11 51°15.251 2°45.865 18.7845 4.599438 34.27682 0.364871
2006-08-25 07:04:16 51°15.252 2°45.838 18.7862 4.599438 34.276228 0.39858
2006-08-25 07:04:21 51°15.252 2°45.81 18.7864 4.599333 34.274162 0.364871
2006-08-25 07:04:25 51°15.253 2°45.788 18.7872 4.599333 34.274162 0.39858
2006-08-25 07:04:31 51°15.254 2°45.754 18.7885 4.600387 34.281781 0.39858
2006-08-25 07:04:36 51°15.255 2°45.726 18.7888 4.600387 34.281781 0.39858
2006-08-25 07:04:40 51°15.255 2°45.704 18.7889 4.599544 34.27533 0.39858
2006-08-25 07:04:45 51°15.257 2°45.675 18.7907 4.599438 34.272671 0.39858
2006-08-25 07:04:51 51°15.257 2°45.642 18.7928 4.599438 34.273264 0.39858
2006-08-25 07:04:56 51°15.258 2°45.614 18.7907 4.599122 34.268845 0.39858
2006-08-25 07:05:01 51°15.258 2°45.587 18.794 4.599122 34.268845 0.432289
2006-08-25 07:05:06 51°15.259 2°45.558 18.793 4.599122 34.268845 0.432289
2006-08-25 07:05:09 51°15.26 2°45.542 18.7959 4.598911 34.266492 0.432289
2006-08-25 07:05:16 51°15.261 2°45.503 18.7944 4.598805 34.263834 0.432289
2006-08-25 07:05:21 51°15.262 2°45.475 18.7961 4.598805 34.263834 0.39858
2006-08-25 07:05:26 51°15.263 2°45.447 18.7957 4.598489 34.261193 0.432289
2006-08-25 07:05:31 51°15.264 2°45.418 18.7966 4.598384 34.258536 0.39858
2006-08-25 07:05:36 51°15.265 2°45.391 18.7981 4.598384 34.258536 0.39858
2006-08-25 07:05:41 51°15.266 2°45.363 18.799 4.5987 34.261177 0.432289
2006-08-25 07:05:46 51°15.267 2°45.336 18.8009 4.598067 34.254119 0.432289
2006-08-25 07:05:51 51°15.268 2°45.307 18.7984 4.598278 34.255287 0.432289
2006-08-25 07:05:56 51°15.269 2°45.279 18.8001 4.598067 34.253527 0.465999
2006-08-25 07:06:01 51°15.27 2°45.251 18.7995 4.598489 34.255271 0.465999
2006-08-25 07:06:05 51°15.271 2°45.228 18.7987 4.598489 34.255271 0.465999
2006-08-25 07:06:11 51°15.272 2°45.195 18.7989 4.598067 34.251158 0.432289
2006-08-25 07:06:16 51°15.273 2°45.167 18.7988 4.597435 34.245878 0.432289
2006-08-25 07:06:21 51°15.275 2°45.14 18.7992 4.597329 34.243814 0.432289
2006-08-25 07:06:26 51°15.275 2°45.112 18.8 4.597013 34.240582 0.432289
2006-08-25 07:06:31 51°15.276 2°45.083 18.7985 4.596907 34.238518 0.432289
2006-08-25 07:06:35 51°15.277 2°45.061 18.799 4.596907 34.238518 0.432289
2006-08-25 07:06:41 51°15.278 2°45.027 18.799 4.596486 34.236182 0.432289
2006-08-25 07:06:46 51°15.278 2°45 18.7987 4.59638 34.23471 0.432289
2006-08-25 07:06:50 51°15.279 2°44.977 18.7976 4.596169 34.233542 0.465999
2006-08-25 07:06:56 51°15.28 2°44.943 18.7968 4.595747 34.230614 0.465999
2006-08-25 07:07:01 51°15.28 2°44.914 18.7968 4.595536 34.227079 0.465999
2006-08-25 07:07:05 51°15.281 2°44.892 18.7949 4.595536 34.227079 0.465999
2006-08-25 07:07:11 51°15.282 2°44.857 18.7952 4.595009 34.223863 0.432289
2006-08-25 07:07:16 51°15.282 2°44.831 18.7948 4.59406 34.214761 0.432289
2006-08-25 07:07:21 51°15.282 2°44.802 18.7964 4.593533 34.214501 0.432289
2006-08-25 07:07:26 51°15.283 2°44.773 18.7953 4.592268 34.200395 0.465999
2006-08-25 07:07:31 51°15.282 2°44.745 18.7967 4.59153 34.195418 0.465999
2006-08-25 07:07:36 51°15.284 2°44.717 18.7949 4.59153 34.195418 0.465999
2006-08-25 07:07:41 51°15.284 2°44.691 18.7934 4.592057 34.199817 0.465999
2006-08-25 07:07:45 51°15.285 2°44.668 18.7939 4.590581 34.189273 0.465999
2006-08-25 07:07:51 51°15.286 2°44.634 18.7932 4.589842 34.183705 0.432289
2006-08-25 07:07:56 51°15.286 2°44.607 18.7926 4.589526 34.180474 0.432289
2006-08-25 07:08:01 51°15.287 2°44.578 18.7936 4.588577 34.172556 0.465999
2006-08-25 07:08:05 51°15.287 2°44.556 18.7925 4.588577 34.172556 0.465999
2006-08-25 07:08:10 51°15.288 2°44.528 18.7907 4.58805 34.168748 0.465999
2006-08-25 07:08:16 51°15.289 2°44.495 18.7905 4.587628 34.164048 0.432289
2006-08-25 07:08:21 51°15.291 2°44.468 18.7914 4.587312 34.16259 0.465999
2006-08-25 07:08:25 51°15.291 2°44.446 18.7917 4.586574 34.157613 0.465999
2006-08-25 07:08:31 51°15.293 2°44.411 18.7905 4.586152 34.154094 0.465999
2006-08-25 07:08:36 51°15.294 2°44.384 18.7895 4.586152 34.154094 0.465999
2006-08-25 07:08:41 51°15.295 2°44.357 18.79 4.585836 34.151454 0.465999
2006-08-25 07:08:46 51°15.296 2°44.329 18.7901 4.585625 34.150285 0.465999
2006-08-25 07:08:51 51°15.298 2°44.3 18.7903 4.584992 34.146778 0.432289
2006-08-25 07:08:55 51°15.299 2°44.279 18.7896 4.584359 34.140909 0.432289
2006-08-25 07:09:01 51°15.3 2°44.245 18.7901 4.584676 34.142958 0.465999
2006-08-25 07:09:06 51°15.301 2°44.218 18.7887 4.584676 34.142958 0.465999
2006-08-25 07:09:10 51°15.303 2°44.196 18.789 4.584465 34.141789 0.432289
2006-08-25 07:09:15 51°15.304 2°44.168 18.7895 4.584254 34.14121 0.465999
2006-08-25 07:09:21 51°15.306 2°44.134 18.788 4.584148 34.14033 0.465999
2006-08-25 07:09:25 51°15.307 2°44.113 18.7885 4.584043 34.13886 0.465999
2006-08-25 07:09:31 51°15.308 2°44.08 18.7859 4.584043 34.13886 0.465999
2006-08-25 07:09:36 51°15.31 2°44.051 18.7871 4.584043 34.13886 0.465999
2006-08-25 07:09:41 51°15.311 2°44.024 18.7872 4.584043 34.140041 0.465999
2006-08-25 07:09:46 51°15.312 2°43.995 18.789 4.583621 34.136522 0.432289
2006-08-25 07:09:51 51°15.314 2°43.968 18.7882 4.583516 34.135642 0.465999
2006-08-25 07:09:56 51°15.316 2°43.94 18.79 4.583621 34.136522 0.432289
2006-08-25 07:10:01 51°15.318 2°43.913 18.7903 4.583516 34.136232 0.432289
2006-08-25 07:10:06 51°15.32 2°43.885 18.7916 4.583516 34.136232 0.432289
2006-08-25 07:10:11 51°15.321 2°43.858 18.793 4.58341 34.135352 0.432289
2006-08-25 07:10:16 51°15.323 2°43.83 18.7955 4.583094 34.133893 0.465999
2006-08-25 07:10:21 51°15.325 2°43.802 18.7971 4.582672 34.129784 0.465999
2006-08-25 07:10:25 51°15.327 2°43.78 18.798 4.582461 34.128025 0.432289
2006-08-25 07:10:30 51°15.329 2°43.753 18.8005 4.581934 34.123036 0.465999
2006-08-25 07:10:35 51°15.331 2°43.725 18.8022 4.581934 34.123036 0.465999
2006-08-25 07:10:41 51°15.332 2°43.693 18.8012 4.581829 34.122156 0.465999
2006-08-25 07:10:45 51°15.333 2°43.669 18.8029 4.581829 34.122156 0.432289
2006-08-25 07:10:51 51°15.335 2°43.638 18.8042 4.581512 34.116568 0.465999
2006-08-25 07:10:56 51°15.336 2°43.61 18.8046 4.581934 34.119497 0.432289
2006-08-25 07:11:01 51°15.338 2°43.582 18.8039 4.582145 34.120076 0.432289
2006-08-25 07:11:06 51°15.339 2°43.555 18.8059 4.582145 34.120076 0.432289
2006-08-25 07:11:11 51°15.341 2°43.527 18.8058 4.58225 34.119187 0.465999
2006-08-25 07:11:16 51°15.342 2°43.5 18.8068 4.582672 34.121525 0.465999
2006-08-25 07:11:21 51°15.343 2°43.472 18.8082 4.583305 34.126213 0.499708
2006-08-25 07:11:26 51°15.345 2°43.444 18.8091 4.582988 34.121215 0.432289
2006-08-25 07:11:31 51°15.346 2°43.416 18.8101 4.583516 34.125023 0.465999
2006-08-25 07:11:36 51°15.348 2°43.389 18.8109 4.583516 34.125023 0.465999
2006-08-25 07:11:41 51°15.35 2°43.361 18.8126 4.584148 34.12971 0.499708
2006-08-25 07:11:46 51°15.351 2°43.334 18.8124 4.584359 34.130879 0.465999
2006-08-25 07:11:51 51°15.353 2°43.306 18.8147 4.584886 34.135276 0.465999
2006-08-25 07:11:56 51°15.354 2°43.279 18.8142 4.585203 34.136735 0.465999
2006-08-25 07:12:01 51°15.355 2°43.251 18.8148 4.586046 34.141411 0.499708
2006-08-25 07:12:06 51°15.355 2°43.223 18.8169 4.586046 34.141411 0.499708
2006-08-25 07:12:11 51°15.355 2°43.197 18.8173 4.586573 34.145808 0.499708
2006-08-25 07:12:15 51°15.354 2°43.175 18.8188 4.587628 34.154602 0.465999
2006-08-25 07:12:21 51°15.353 2°43.141 18.8202 4.586784 34.146387 0.499708
2006-08-25 07:12:26 51°15.352 2°43.113 18.8198 4.588366 34.157808 0.432289
2006-08-25 07:12:31 51°15.351 2°43.086 18.8219 4.588788 34.161916 0.465999
2006-08-25 07:12:36 51°15.349 2°43.058 18.8213 4.588788 34.161916 0.465999
2006-08-25 07:12:41 51°15.347 2°43.031 18.8209 4.58942 34.166012 0.465999
2006-08-25 07:12:46 51°15.344 2°43.002 18.8219 4.589526 34.165711 0.465999
2006-08-25 07:12:51 51°15.343 2°42.975 18.8225 4.590053 34.169517 0.432289
2006-08-25 07:12:56 51°15.341 2°42.947 18.8225 4.590686 34.173613 0.465999
2006-08-25 07:13:01 51°15.339 2°42.919 18.8218 4.591107 34.17654 0.465999
2006-08-25 07:13:05 51°15.338 2°42.897 18.8219 4.591107 34.17654 0.465999
2006-08-25 07:13:11 51°15.335 2°42.865 18.8223 4.591635 34.179166 0.465999
2006-08-25 07:13:16 51°15.333 2°42.836 18.8236 4.59174 34.179455 0.465999
2006-08-25 07:13:21 51°15.331 2°42.808 18.821 4.592373 34.18355 0.465999
2006-08-25 07:13:25 51°15.329 2°42.786 18.8229 4.591529 34.177106 0.499708
2006-08-25 07:13:30 51°15.327 2°42.759 18.8216 4.592584 34.184128 0.465999
2006-08-25 07:13:35 51°15.325 2°42.731 18.821 4.592584 34.184128 0.465999
2006-08-25 07:13:41 51°15.323 2°42.697 18.8216 4.592373 34.18355 0.465999
2006-08-25 07:13:45 51°15.322 2°42.675 18.8207 4.592373 34.18296 0.432289
2006-08-25 07:13:51 51°15.319 2°42.641 18.821 4.593427 34.189391 0.465999
2006-08-25 07:13:56 51°15.318 2°42.614 18.8195 4.592689 34.185598 0.432289
2006-08-25 07:14:01 51°15.316 2°42.585 18.8196 4.593216 34.189995 0.432289
2006-08-25 07:14:06 51°15.315 2°42.558 18.8179 4.593216 34.189995 0.432289
2006-08-25 07:14:11 51°15.313 2°42.531 18.8189 4.593216 34.190585 0.465999
2006-08-25 07:14:16 51°15.311 2°42.503 18.8181 4.593533 34.193814 0.465999
2006-08-25 07:14:21 51°15.309 2°42.475 18.816 4.593744 34.194982 0.465999
2006-08-25 07:14:26 51°15.308 2°42.447 18.8164 4.593849 34.197043 0.432289
2006-08-25 07:14:29 51°15.307 2°42.431 18.8169 4.594482 34.20232 0.432289
2006-08-25 07:14:36 51°15.307 2°42.392 18.816 4.594482 34.20232 0.432289
2006-08-25 07:14:41 51°15.307 2°42.365 18.8151 4.594271 34.200561 0.432289
2006-08-25 07:14:45 51°15.306 2°42.343 18.8138 4.594798 34.205549 0.432289
2006-08-25 07:14:51 51°15.307 2°42.31 18.8141 4.595431 34.210235 0.432289
2006-08-25 07:14:56 51°15.307 2°42.282 18.8112 4.595958 34.215815 0.432289
2006-08-25 07:15:01 51°15.307 2°42.258 18.8115 4.595958 34.216406 0.432289
2006-08-25 07:15:06 51°15.307 2°42.234 18.8104 4.595958 34.216406 0.432289
2006-08-25 07:15:10 51°15.308 2°42.215 18.8083 4.596063 34.217285 0.465999
2006-08-25 07:15:16 51°15.309 2°42.193 18.808 4.59638 34.220515 0.432289
2006-08-25 07:15:21 51°15.31 2°42.173 18.8079 4.596907 34.226096 0.465999
2006-08-25 07:15:26 51°15.312 2°42.156 18.8059 4.597223 34.229326 0.432289
2006-08-25 07:15:31 51°15.315 2°42.139 18.8051 4.59754 34.232556 0.432289
2006-08-25 07:15:36 51°15.317 2°42.124 18.804 4.59754 34.232556 0.432289
2006-08-25 07:15:41 51°15.321 2°42.11 18.8027 4.597856 34.236378 0.432289
2006-08-25 07:15:46 51°15.324 2°42.098 18.8017 4.598067 34.238138 0.432289
2006-08-25 07:15:50 51°15.326 2°42.089 18.8006 4.599121 34.248119 0.432289
2006-08-25 07:15:56 51°15.33 2°42.076 18.7986 4.598383 34.243144 0.465999
2006-08-25 07:16:01 51°15.333 2°42.066 18.7984 4.598805 34.247255 0.432289
2006-08-25 07:16:05 51°15.335 2°42.059 18.7983 4.598805 34.247255 0.432289
2006-08-25 07:16:10 51°15.338 2°42.05 18.7972 4.599016 34.251974 0.432289
2006-08-25 07:16:15 51°15.341 2°42.041 18.7974 4.599332 34.25343 0.39858
2006-08-25 07:16:21 51°15.344 2°42.032 18.7961 4.599438 34.256678 0.432289
2006-08-25 07:16:25 51°15.346 2°42.026 18.7969 4.599438 34.257862 0.432289
2006-08-25 07:16:31 51°15.349 2°42.017 18.7971 4.59986 34.263751 0.39858
2006-08-25 07:16:36 51°15.352 2°42.01 18.7979 4.59986 34.263751 0.39858
2006-08-25 07:16:41 51°15.354 2°42.004 18.7973 4.599438 34.261415 0.39858
2006-08-25 07:16:46 51°15.355 2°41.998 18.7977 4.599543 34.263479 0.39858
2006-08-25 07:16:51 51°15.357 2°41.992 18.7968 4.599649 34.266137 0.39858
2006-08-25 07:16:55 51°15.358 2°41.988 18.7974 4.599754 34.267017 0.432289
2006-08-25 07:17:01 51°15.361 2°41.981 18.7998 4.599965 34.268777 0.432289
2006-08-25 07:17:06 51°15.363 2°41.975 18.7974 4.599965 34.268777 0.432289
2006-08-25 07:17:10 51°15.365 2°41.971 18.7983 4.600176 34.270538 0.432289
2006-08-25 07:17:16 51°15.367 2°41.964 18.7972 4.600387 34.27289 0.432289
2006-08-25 07:17:21 51°15.37 2°41.958 18.797 4.600493 34.273771 0.39858
2006-08-25 07:17:25 51°15.372 2°41.954 18.7968 4.600387 34.273483 0.39858
2006-08-25 07:17:31 51°15.375 2°41.948 18.7977 4.600493 34.274363 0.39858
2006-08-25 07:17:36 51°15.377 2°41.943 18.7997 4.600493 34.274363 0.39858
2006-08-25 07:17:41 51°15.379 2°41.938 18.7986 4.600598 34.274058 0.39858
2006-08-25 07:17:45 51°15.381 2°41.934 18.7984 4.600809 34.276411 0.364871
2006-08-25 07:17:51 51°15.384 2°41.929 18.7976 4.600809 34.277004 0.39858
2006-08-25 07:17:56 51°15.386 2°41.924 18.7979 4.600598 34.274651 0.39858
2006-08-25 07:18:01 51°15.389 2°41.92 18.7986 4.600914 34.276106 0.432289
2006-08-25 07:18:06 51°15.391 2°41.916 18.797 4.600914 34.276106 0.432289
2006-08-25 07:18:11 51°15.394 2°41.912 18.7972 4.600598 34.274651 0.39858
2006-08-25 07:18:16 51°15.397 2°41.908 18.7975 4.600914 34.276699 0.432289
2006-08-25 07:18:21 51°15.4 2°41.905 18.7995 4.600598 34.274651 0.364871
2006-08-25 07:18:26 51°15.402 2°41.901 18.7988 4.600703 34.274939 0.39858
2006-08-25 07:18:31 51°15.405 2°41.897 18.8007 4.600598 34.274651 0.39858
2006-08-25 07:18:36 51°15.406 2°41.894 18.7996 4.600598 34.274651 0.39858
2006-08-25 07:18:41 51°15.408 2°41.891 18.7996 4.601125 34.279052 0.39858
2006-08-25 07:18:45 51°15.411 2°41.888 18.8004 4.600703 34.278494 0.39858
2006-08-25 07:18:50 51°15.414 2°41.885 18.8008 4.601125 34.279645 0.39858
2006-08-25 07:18:56 51°15.416 2°41.88 18.8002 4.601125 34.279052 0.39858
2006-08-25 07:19:01 51°15.418 2°41.877 18.8013 4.601125 34.277867 0.39858
2006-08-25 07:19:06 51°15.421 2°41.874 18.804 4.601125 34.277867 0.39858
2006-08-25 07:19:11 51°15.423 2°41.871 18.8023 4.600809 34.275226 0.39858
2006-08-25 07:19:15 51°15.425 2°41.868 18.8045 4.601125 34.278459 0.432289
2006-08-25 07:19:21 51°15.429 2°41.864 18.8031 4.601231 34.278747 0.364871
2006-08-25 07:19:26 51°15.431 2°41.861 18.8053 4.601231 34.279932 0.39858
2006-08-25 07:19:31 51°15.433 2°41.858 18.8051 4.601442 34.279915 0.39858
2006-08-25 07:19:36 51°15.436 2°41.855 18.8058 4.601442 34.279915 0.39858
2006-08-25 07:19:41 51°15.438 2°41.852 18.807 4.601547 34.280795 0.364871
2006-08-25 07:19:46 51°15.44 2°41.849 18.8081 4.601442 34.279322 0.39858
2006-08-25 07:19:51 51°15.441 2°41.846 18.8104 4.601547 34.278425 0.39858
2006-08-25 07:19:55 51°15.442 2°41.843 18.81 4.601441 34.278137 0.364871
2006-08-25 07:20:01 51°15.444 2°41.84 18.8098 4.601547 34.278425 0.39858
2006-08-25 07:20:06 51°15.446 2°41.837 18.8088 4.601547 34.278425 0.39858
2006-08-25 07:20:11 51°15.447 2°41.835 18.8128 4.601758 34.279 0.39858
2006-08-25 07:20:16 51°15.448 2°41.832 18.8148 4.602074 34.282233 0.39858
2006-08-25 07:20:20 51°15.449 2°41.83 18.8144 4.601863 34.27988 0.39858
2006-08-25 07:20:26 51°15.449 2°41.827 18.8157 4.601863 34.278103 0.39858
2006-08-25 07:20:31 51°15.45 2°41.825 18.8135 4.602496 34.282198 0.432289
2006-08-25 07:20:36 51°15.449 2°41.823 18.8141 4.602496 34.282198 0.432289
2006-08-25 07:20:40 51°15.449 2°41.821 18.8138 4.602074 34.278678 0.39858
2006-08-25 07:20:45 51°15.448 2°41.82 18.8112 4.601969 34.276613 0.39858
2006-08-25 07:20:51 51°15.446 2°41.818 18.8124 4.602285 34.278661 0.364871
2006-08-25 07:20:56 51°15.445 2°41.817 18.8125 4.602707 34.280996 0.432289
2006-08-25 07:21:01 51°15.443 2°41.816 18.8118 4.602496 34.278051 0.39858
2006-08-25 07:21:06 51°15.442 2°41.814 18.8119 4.602496 34.278051 0.39858
2006-08-25 07:21:11 51°15.44 2°41.813 18.8113 4.602812 34.280099 0.39858
2006-08-25 07:21:16 51°15.438 2°41.812 18.8146 4.603128 34.282739 0.39858
2006-08-25 07:21:22 51°15.436 2°41.811 18.8101 4.602707 34.280996 0.39858
2006-08-25 07:21:27 51°15.435 2°41.809 18.8084 4.603234 34.284804 0.432289
2006-08-25 07:21:31 51°15.433 2°41.809 18.81 4.602812 34.281876 0.39858
2006-08-25 07:21:36 51°15.432 2°41.808 18.8085 4.602812 34.281876 0.39858
2006-08-25 07:21:41 51°15.43 2°41.807 18.8085 4.602812 34.281284 0.39858
2006-08-25 07:21:45 51°15.428 2°41.806 18.8108 4.602918 34.282756 0.364871
2006-08-25 07:21:51 51°15.426 2°41.804 18.8077 4.602601 34.280708 0.39858
2006-08-25 07:21:55 51°15.425 2°41.803 18.8073 4.602601 34.279524 0.39858
2006-08-25 07:22:01 51°15.422 2°41.802 18.8068 4.602812 34.283653 0.39858
2006-08-25 07:22:06 51°15.42 2°41.8 18.8073 4.602812 34.283653 0.39858
2006-08-25 07:22:11 51°15.418 2°41.799 18.8068 4.602496 34.281013 0.39858
2006-08-25 07:22:16 51°15.417 2°41.798 18.8065 4.602601 34.282486 0.39858
2006-08-25 07:22:21 51°15.415 2°41.796 18.8062 4.602285 34.279846 0.39858
2006-08-25 07:22:26 51°15.413 2°41.795 18.8061 4.603339 34.288054 0.39858
2006-08-25 07:22:31 51°15.411 2°41.794 18.8066 4.60239 34.280726 0.39858
2006-08-25 07:22:36 51°15.409 2°41.793 18.8064 4.60239 34.280726 0.39858
2006-08-25 07:22:41 51°15.407 2°41.791 18.807 4.602285 34.281623 0.39858
2006-08-25 07:22:45 51°15.405 2°41.79 18.8086 4.601758 34.279 0.39858
2006-08-25 07:22:51 51°15.403 2°41.789 18.8068 4.601758 34.27663 0.39858
2006-08-25 07:22:56 51°15.401 2°41.787 18.8077 4.602074 34.279863 0.39858
2006-08-25 07:23:01 51°15.398 2°41.786 18.8076 4.602285 34.281623 0.39858
2006-08-25 07:23:06 51°15.397 2°41.785 18.8076 4.602285 34.281623 0.39858
2006-08-25 07:23:11 51°15.395 2°41.784 18.8067 4.601969 34.278983 0.39858
2006-08-25 07:23:16 51°15.393 2°41.782 18.8067 4.602285 34.282216 0.39858
2006-08-25 07:23:21 51°15.39 2°41.78 18.8049 4.60218 34.282521 0.39858
2006-08-25 07:23:26 51°15.388 2°41.778 18.8086 4.60218 34.280743 0.39858
2006-08-25 07:23:31 51°15.386 2°41.777 18.8069 4.60239 34.283096 0.364871
2006-08-25 07:23:36 51°15.384 2°41.776 18.8082 4.60239 34.283096 0.364871
2006-08-25 07:23:41 51°15.382 2°41.774 18.8072 4.60239 34.281318 0.39858
2006-08-25 07:23:46 51°15.381 2°41.773 18.8054 4.601336 34.276072 0.432289
2006-08-25 07:23:51 51°15.379 2°41.771 18.8075 4.601652 34.279305 0.39858
2006-08-25 07:23:55 51°15.377 2°41.77 18.8065 4.602496 34.283976 0.364871
2006-08-25 07:24:00 51°15.375 2°41.768 18.8055 4.602285 34.281623 0.39858
2006-08-25 07:24:05 51°15.373 2°41.766 18.804 4.602285 34.281623 0.39858
2006-08-25 07:24:10 51°15.372 2°41.764 18.8044 4.602601 34.284263 0.39858
2006-08-25 07:24:16 51°15.369 2°41.762 18.8042 4.602496 34.283976 0.39858
2006-08-25 07:24:21 51°15.367 2°41.759 18.8033 4.602496 34.283383 0.39858
2006-08-25 07:24:26 51°15.366 2°41.758 18.804 4.60239 34.283096 0.364871
2006-08-25 07:24:31 51°15.364 2°41.756 18.8052 4.602285 34.282216 0.364871
2006-08-25 07:24:35 51°15.362 2°41.755 18.8049 4.602285 34.282216 0.364871
2006-08-25 07:24:41 51°15.359 2°41.752 18.8055 4.602601 34.284263 0.39858
2006-08-25 07:24:45 51°15.358 2°41.749 18.8052 4.60239 34.283688 0.39858
2006-08-25 07:24:51 51°15.356 2°41.747 18.8053 4.601969 34.281353 0.39858
2006-08-25 07:24:55 51°15.354 2°41.745 18.8037 4.602391 34.285466 0.39858
2006-08-25 07:25:01 51°15.352 2°41.742 18.8055 4.602601 34.286634 0.39858
2006-08-25 07:25:06 51°15.35 2°41.74 18.8039 4.602601 34.286634 0.39858
2006-08-25 07:25:10 51°15.349 2°41.738 18.8036 4.601441 34.27636 0.432289
2006-08-25 07:25:16 51°15.347 2°41.735 18.8028 4.60218 34.282521 0.432289
2006-08-25 07:25:21 51°15.345 2°41.733 18.8029 4.598805 34.255542 0.432289
2006-08-25 07:25:26 51°15.343 2°41.73 18.8031 4.601441 34.276952 0.39858
2006-08-25 07:25:31 51°15.342 2°41.727 18.8041 4.601652 34.278712 0.39858
2006-08-25 07:25:36 51°15.34 2°41.725 18.8032 4.601652 34.278712 0.39858
2006-08-25 07:25:41 51°15.338 2°41.723 18.8031 4.587206 34.157577 0.39858
2006-08-25 07:25:46 51°15.337 2°41.721 18.8019 4.601652 34.279305 0.39858
2006-08-25 07:25:51 51°15.335 2°41.718 18.8017 4.602496 34.285161 0.39858
2006-08-25 07:25:55 51°15.334 2°41.717 18.802 4.601336 34.27548 0.39858
2006-08-25 07:26:01 51°15.332 2°41.713 18.8018 4.602285 34.284586 0.39858
2006-08-25 07:26:06 51°15.33 2°41.711 18.8024 4.602285 34.284586 0.39858
2006-08-25 07:26:11 51°15.328 2°41.708 18.8016 4.602496 34.285754 0.39858
2006-08-25 07:26:16 51°15.327 2°41.706 18.8004 4.601336 34.27548 0.39858
2006-08-25 07:26:21 51°15.326 2°41.703 18.8 4.602074 34.282826 0.39858
2006-08-25 07:26:26 51°15.324 2°41.701 18.7998 4.601231 34.27934 0.39858
2006-08-25 07:26:31 51°15.322 2°41.699 18.7995 4.601863 34.281065 0.432289
2006-08-25 07:26:36 51°15.321 2°41.697 18.8004 4.601863 34.281065 0.432289
2006-08-25 07:26:41 51°15.319 2°41.695 18.8005 4.602285 34.283993 0.39858
2006-08-25 07:26:45 51°15.318 2°41.693 18.7997 4.601547 34.279017 0.432289
2006-08-25 07:26:51 51°15.316 2°41.691 18.7995 4.601758 34.281963 0.432289
2006-08-25 07:26:56 51°15.314 2°41.688 18.7983 4.602074 34.283418 0.39858
2006-08-25 07:27:01 51°15.313 2°41.686 18.7974 4.602391 34.287244 0.432289
2006-08-25 07:27:05 51°15.312 2°41.685 18.7964 4.602391 34.287244 0.432289
2006-08-25 07:27:11 51°15.31 2°41.683 18.7965 4.601969 34.284316 0.432289
2006-08-25 07:27:16 51°15.308 2°41.681 18.7969 4.601758 34.282556 0.39858
2006-08-25 07:27:21 51°15.307 2°41.679 18.7981 4.60218 34.286076 0.39858
2006-08-25 07:27:26 51°15.305 2°41.677 18.7996 4.601758 34.281963 0.432289
2006-08-25 07:27:31 51°15.304 2°41.676 18.7959 4.602074 34.285789 0.39858
2006-08-25 07:27:36 51°15.302 2°41.674 18.7961 4.602074 34.285789 0.39858
2006-08-25 07:27:41 51°15.301 2°41.672 18.7941 4.60218 34.286669 0.39858
2006-08-25 07:27:46 51°15.299 2°41.671 18.7924 4.601969 34.285501 0.39858
2006-08-25 07:27:51 51°15.298 2°41.669 18.7931 4.601969 34.284316 0.432289
2006-08-25 07:27:56 51°15.297 2°41.668 18.7937 4.601547 34.282573 0.39858
2006-08-25 07:28:01 51°15.295 2°41.667 18.793 4.601758 34.284926 0.39858
2006-08-25 07:28:05 51°15.294 2°41.665 18.7933 4.601758 34.284926 0.39858
2006-08-25 07:28:10 51°15.292 2°41.664 18.7943 4.601336 34.281998 0.39858
2006-08-25 07:28:15 51°15.291 2°41.663 18.7959 4.601652 34.285231 0.39858
2006-08-25 07:28:21 51°15.289 2°41.661 18.7959 4.601547 34.285537 0.39858
2006-08-25 07:28:26 51°15.288 2°41.66 18.7956 4.601336 34.283776 0.432289
2006-08-25 07:28:31 51°15.287 2°41.658 18.7954 4.60102 34.281728 0.432289
2006-08-25 07:28:35 51°15.285 2°41.657 18.7939 4.60102 34.281728 0.432289
2006-08-25 07:28:41 51°15.284 2°41.656 18.7945 4.601442 34.284064 0.432289
2006-08-25 07:28:46 51°15.282 2°41.655 18.7938 4.600387 34.277631 0.432289
2006-08-25 07:28:51 51°15.281 2°41.653 18.7924 4.600809 34.281153 0.432289
2006-08-25 07:28:56 51°15.279 2°41.652 18.7924 4.601653 34.288196 0.39858
2006-08-25 07:29:01 51°15.278 2°41.651 18.7928 4.601442 34.284064 0.39858
2006-08-25 07:29:06 51°15.277 2°41.65 18.7962 4.601442 34.284064 0.39858
2006-08-25 07:29:11 51°15.276 2°41.649 18.798 4.60102 34.281135 0.39858
2006-08-25 07:29:15 51°15.274 2°41.648 18.7959 4.601336 34.282591 0.39858
2006-08-25 07:29:21 51°15.273 2°41.647 18.7959 4.601442 34.284064 0.432289
2006-08-25 07:29:26 51°15.271 2°41.646 18.7949 4.602707 34.294035 0.364871
2006-08-25 07:29:31 51°15.27 2°41.645 18.7935 4.60102 34.281135 0.39858
2006-08-25 07:29:36 51°15.268 2°41.644 18.7927 4.60102 34.281135 0.39858
2006-08-25 07:29:41 51°15.267 2°41.643 18.7951 4.601442 34.285842 0.39858
2006-08-25 07:29:46 51°15.265 2°41.642 18.7964 4.601336 34.283776 0.39858
2006-08-25 07:29:51 51°15.263 2°41.64 18.7978 4.601231 34.28171 0.39858
2006-08-25 07:29:55 51°15.262 2°41.639 18.7988 4.601758 34.287297 0.39858
2006-08-25 07:30:01 51°15.261 2°41.639 18.798 4.601547 34.283758 0.39858
2006-08-25 07:30:06 51°15.26 2°41.637 18.7964 4.601547 34.283758 0.39858
2006-08-25 07:30:11 51°15.258 2°41.637 18.7965 4.601758 34.285519 0.39858
2006-08-25 07:30:16 51°15.257 2°41.635 18.7949 4.601336 34.283776 0.39858
2006-08-25 07:30:21 51°15.256 2°41.635 18.7948 4.601442 34.285249 0.39858
2006-08-25 07:30:26 51°15.254 2°41.634 18.7946 4.60102 34.280542 0.39858
2006-08-25 07:30:31 51°15.253 2°41.632 18.7941 4.601547 34.283166 0.364871
2006-08-25 07:30:36 51°15.252 2°41.631 18.7924 4.601547 34.283166 0.364871
2006-08-25 07:30:41 51°15.25 2°41.63 18.791 4.601652 34.283453 0.364871
2006-08-25 07:30:46 51°15.249 2°41.629 18.7885 4.601442 34.282285 0.39858
2006-08-25 07:30:51 51°15.247 2°41.628 18.7885 4.601336 34.283776 0.432289
2006-08-25 07:30:56 51°15.246 2°41.627 18.7869 4.601336 34.283776 0.39858
2006-08-25 07:31:01 51°15.244 2°41.625 18.785 4.601231 34.28171 0.39858
2006-08-25 07:31:06 51°15.243 2°41.624 18.7835 4.601231 34.28171 0.39858
2006-08-25 07:31:11 51°15.242 2°41.622 18.7848 4.601336 34.282591 0.39858
2006-08-25 07:31:16 51°15.24 2°41.622 18.782 4.601969 34.289058 0.432289
2006-08-25 07:31:21 51°15.239 2°41.62 18.7816 4.601231 34.285267 0.39858
2006-08-25 07:31:26 51°15.237 2°41.619 18.7824 4.601336 34.287333 0.39858
2006-08-25 07:31:31 51°15.236 2°41.618 18.7803 4.600176 34.278834 0.39858
2006-08-25 07:31:36 51°15.235 2°41.616 18.7812 4.600176 34.278834 0.39858
2006-08-25 07:31:41 51°15.233 2°41.615 18.7793 4.600282 34.281493 0.39858
2006-08-25 07:31:46 51°15.232 2°41.614 18.7803 4.600387 34.282966 0.39858
2006-08-25 07:31:51 51°15.231 2°41.613 18.7828 4.601231 34.290603 0.39858
2006-08-25 07:31:56 51°15.229 2°41.612 18.784 4.599965 34.280037 0.39858
2006-08-25 07:32:01 51°15.228 2°41.613 18.7864 4.600071 34.283289 0.39858
2006-08-25 07:32:06 51°15.228 2°41.613 18.7885 4.600071 34.283289 0.39858
2006-08-25 07:32:11 51°15.228 2°41.615 18.7883 4.600176 34.28417 0.39858
2006-08-25 07:32:16 51°15.228 2°41.616 18.7906 4.600176 34.284763 0.364871
2006-08-25 07:32:21 51°15.228 2°41.616 18.7915 4.599755 34.281834 0.39858
2006-08-25 07:32:26 51°15.229 2°41.618 18.7928 4.599649 34.280953 0.39858
2006-08-25 07:32:31 51°15.23 2°41.618 18.79 4.599966 34.282409 0.39858
2006-08-25 07:32:36 51°15.231 2°41.619 18.7916 4.599966 34.282409 0.39858
2006-08-25 07:32:41 51°15.233 2°41.62 18.7925 4.600071 34.282696 0.364871
2006-08-25 07:32:46 51°15.234 2°41.62 18.7921 4.600282 34.281493 0.432289
2006-08-25 07:32:51 51°15.237 2°41.62 18.7935 4.600071 34.279732 0.432289
2006-08-25 07:32:56 51°15.239 2°41.619 18.7907 4.600493 34.282068 0.39858
2006-08-25 07:33:01 51°15.242 2°41.618 18.7923 4.600282 34.278529 0.39858
2006-08-25 07:33:06 51°15.245 2°41.617 18.7939 4.600282 34.278529 0.39858
2006-08-25 07:33:11 51°15.248 2°41.615 18.7925 4.600598 34.28117 0.432289
2006-08-25 07:33:16 51°15.251 2°41.612 18.7937 4.600914 34.283219 0.432289
2006-08-25 07:33:21 51°15.254 2°41.609 18.7925 4.600598 34.281763 0.432289
2006-08-25 07:33:26 51°15.258 2°41.605 18.7937 4.600493 34.279697 0.39858
2006-08-25 07:33:31 51°15.261 2°41.601 18.7953 4.600914 34.282626 0.432289
2006-08-25 07:33:36 51°15.265 2°41.595 18.7921 4.600914 34.282626 0.432289
2006-08-25 07:33:41 51°15.269 2°41.59 18.7937 4.600809 34.282338 0.432289
2006-08-25 07:33:46 51°15.273 2°41.583 18.7954 4.600914 34.283219 0.432289
2006-08-25 07:33:51 51°15.277 2°41.576 18.7985 4.60102 34.283506 0.432289
2006-08-25 07:33:55 51°15.28 2°41.57 18.8001 4.600598 34.279985 0.432289
2006-08-25 07:34:01 51°15.284 2°41.558 18.8009 4.600598 34.279985 0.432289
2006-08-25 07:34:06 51°15.287 2°41.548 18.8001 4.600598 34.279985 0.432289
2006-08-25 07:34:10 51°15.289 2°41.539 18.8004 4.600387 34.278224 0.39858
2006-08-25 07:34:15 51°15.291 2°41.529 18.8014 4.600809 34.28056 0.432289
2006-08-25 07:34:21 51°15.291 2°41.514 18.8015 4.600493 34.277326 0.432289
2006-08-25 07:34:26 51°15.292 2°41.502 18.8043 4.600493 34.276734 0.39858
2006-08-25 07:34:31 51°15.292 2°41.488 18.8054 4.601125 34.280237 0.39858
2006-08-25 07:34:36 51°15.292 2°41.475 18.8051 4.601125 34.280237 0.39858
2006-08-25 07:34:41 51°15.293 2°41.46 18.8067 4.601442 34.281693 0.432289
2006-08-25 07:34:46 51°15.293 2°41.447 18.8066 4.600914 34.278477 0.432289
2006-08-25 07:34:51 51°15.294 2°41.434 18.8064 4.601547 34.283166 0.432289
2006-08-25 07:34:56 51°15.295 2°41.422 18.8057 4.601336 34.279035 0.432289
2006-08-25 07:35:01 51°15.296 2°41.412 18.8077 4.601547 34.27961 0.39858
2006-08-25 07:35:06 51°15.296 2°41.401 18.8074 4.601547 34.27961 0.39858
2006-08-25 07:35:11 51°15.297 2°41.392 18.8055 4.601758 34.278408 0.39858
2006-08-25 07:35:16 51°15.297 2°41.385 18.806 4.602285 34.282808 0.432289
2006-08-25 07:35:21 51°15.297 2°41.377 18.806 4.601231 34.275192 0.432289
2006-08-25 07:35:26 51°15.297 2°41.37 18.8065 4.602918 34.286904 0.39858
2006-08-25 07:35:31 51°15.297 2°41.364 18.806 4.602601 34.283671 0.39858
2006-08-25 07:35:36 51°15.297 2°41.36 18.8073 4.602601 34.283671 0.39858
2006-08-25 07:35:41 51°15.297 2°41.355 18.8058 4.602285 34.281623 0.432289
2006-08-25 07:35:45 51°15.296 2°41.353 18.8068 4.60239 34.281911 0.39858
2006-08-25 07:35:51 51°15.295 2°41.349 18.8068 4.60239 34.281911 0.465999
2006-08-25 07:35:55 51°15.294 2°41.347 18.8087 4.602812 34.285431 0.39858
2006-08-25 07:36:01 51°15.292 2°41.346 18.8095 4.602812 34.284839 0.39858
2006-08-25 07:36:06 51°15.291 2°41.345 18.8072 4.602812 34.284839 0.39858
2006-08-25 07:36:10 51°15.289 2°41.344 18.8086 4.602496 34.283383 0.39858
2006-08-25 07:36:16 51°15.286 2°41.344 18.8083 4.602707 34.284551 0.364871
2006-08-25 07:36:22 51°15.284 2°41.343 18.8091 4.602707 34.285144 0.432289
2006-08-25 07:36:26 51°15.282 2°41.343 18.8085 4.602812 34.284839 0.432289
2006-08-25 07:36:32 51°15.28 2°41.342 18.8077 4.602601 34.283671 0.39858
2006-08-25 07:36:37 51°15.278 2°41.341 18.8074 4.602601 34.283671 0.39858
2006-08-25 07:36:42 51°15.276 2°41.341 18.8062 4.602812 34.285431 0.432289
2006-08-25 07:36:47 51°15.273 2°41.34 18.8063 4.602812 34.284839 0.39858
2006-08-25 07:36:52 51°15.272 2°41.34 18.8043 4.602812 34.284839 0.39858
2006-08-25 07:36:56 51°15.27 2°41.339 18.8075 4.603234 34.287174 0.39858
2006-08-25 07:37:01 51°15.268 2°41.339 18.8061 4.602918 34.285126 0.432289
2006-08-25 07:37:05 51°15.266 2°41.339 18.805 4.602918 34.285126 0.432289
2006-08-25 07:37:11 51°15.263 2°41.338 18.807 4.602707 34.283958 0.39858
2006-08-25 07:37:15 51°15.262 2°41.338 18.8052 4.602707 34.285144 0.39858
2006-08-25 07:37:21 51°15.26 2°41.337 18.8051 4.602812 34.286024 0.432289
2006-08-25 07:37:26 51°15.258 2°41.336 18.8059 4.602918 34.286904 0.39858
2006-08-25 07:37:31 51°15.257 2°41.334 18.8031 4.602601 34.284263 0.39858
2006-08-25 07:37:36 51°15.255 2°41.333 18.8054 4.602601 34.284263 0.39858
2006-08-25 07:37:41 51°15.254 2°41.332 18.804 4.602707 34.285144 0.432289
2006-08-25 07:37:46 51°15.252 2°41.33 18.8034 4.602707 34.285736 0.432289
2006-08-25 07:37:51 51°15.251 2°41.328 18.8044 4.602918 34.286311 0.39858
2006-08-25 07:37:56 51°15.249 2°41.327 18.8031 4.602601 34.285449 0.39858
2006-08-25 07:38:01 51°15.248 2°41.325 18.8034 4.602707 34.286329 0.39858
2006-08-25 07:38:05 51°15.246 2°41.325 18.8055 4.602707 34.286329 0.39858
2006-08-25 07:38:11 51°15.245 2°41.323 18.8047 4.602812 34.287209 0.432289
2006-08-25 07:38:16 51°15.243 2°41.322 18.8058 4.602812 34.286616 0.432289
2006-08-25 07:38:21 51°15.241 2°41.321 18.8027 4.602496 34.284568 0.39858
2006-08-25 07:38:25 51°15.24 2°41.32 18.803 4.602496 34.285161 0.39858
2006-08-25 07:38:31 51°15.238 2°41.319 18.8037 4.602601 34.286041 0.39858
2006-08-25 07:38:36 51°15.236 2°41.318 18.8042 4.602601 34.286041 0.39858
2006-08-25 07:38:41 51°15.235 2°41.317 18.8041 4.602601 34.285449 0.39858
2006-08-25 07:38:46 51°15.233 2°41.316 18.8041 4.602285 34.283401 0.39858
2006-08-25 07:38:51 51°15.232 2°41.316 18.8043 4.602601 34.286041 0.432289
2006-08-25 07:38:56 51°15.23 2°41.315 18.8044 4.602707 34.286329 0.432289
2006-08-25 07:39:01 51°15.229 2°41.314 18.8034 4.60239 34.284281 0.432289
2006-08-25 07:39:06 51°15.227 2°41.313 18.8046 4.60239 34.284281 0.432289
2006-08-25 07:39:10 51°15.225 2°41.313 18.8033 4.602707 34.286921 0.39858
2006-08-25 07:39:16 51°15.223 2°41.312 18.8017 4.602496 34.285161 0.39858
2006-08-25 07:39:21 51°15.222 2°41.311 18.8042 4.602285 34.282808 0.39858
2006-08-25 07:39:26 51°15.221 2°41.31 18.804 4.60239 34.284874 0.432289
2006-08-25 07:39:31 51°15.219 2°41.31 18.8031 4.602601 34.286634 0.432289
2006-08-25 07:39:35 51°15.218 2°41.31 18.8024 4.602601 34.286634 0.432289
2006-08-25 07:39:41 51°15.216 2°41.308 18.8036 4.602601 34.286041 0.39858
2006-08-25 07:39:46 51°15.215 2°41.308 18.8034 4.602496 34.283976 0.39858
2006-08-25 07:39:51 51°15.213 2°41.307 18.8021 4.602601 34.286634 0.432289
2006-08-25 07:39:56 51°15.211 2°41.307 18.8018 4.602391 34.285466 0.432289
2006-08-25 07:40:01 51°15.21 2°41.306 18.8029 4.602601 34.287819 0.39858
2006-08-25 07:40:06 51°15.209 2°41.305 18.8038 4.602601 34.287819 0.39858
2006-08-25 07:40:11 51°15.207 2°41.304 18.8023 4.602812 34.287802 0.432289
2006-08-25 07:40:16 51°15.206 2°41.303 18.8026 4.602601 34.287227 0.432289
2006-08-25 07:40:21 51°15.204 2°41.302 18.8015 4.602496 34.285754 0.39858
2006-08-25 07:40:26 51°15.203 2°41.301 18.8006 4.602812 34.288394 0.39858
2006-08-25 07:40:31 51°15.201 2°41.3 18.8011 4.602812 34.288394 0.432289
2006-08-25 07:40:36 51°15.2 2°41.3 18.8014 4.602812 34.288394 0.432289
2006-08-25 07:40:41 51°15.198 2°41.298 18.8014 4.602918 34.289274 0.432289
2006-08-25 07:40:45 51°15.198 2°41.297 18.8037 4.60218 34.283706 0.39858
2006-08-25 07:40:50 51°15.196 2°41.297 18.8014 4.602707 34.288699 0.432289
2006-08-25 07:40:56 51°15.194 2°41.296 18.8019 4.602285 34.285179 0.432289
2006-08-25 07:41:01 51°15.192 2°41.295 18.8026 4.602707 34.288107 0.39858
2006-08-25 07:41:06 51°15.191 2°41.294 18.8014 4.602707 34.288107 0.39858
2006-08-25 07:41:11 51°15.19 2°41.293 18.8041 4.602918 34.289867 0.39858
2006-08-25 07:41:16 51°15.188 2°41.292 18.8024 4.602496 34.286939 0.432289
2006-08-25 07:41:21 51°15.187 2°41.291 18.8029 4.602285 34.285179 0.432289
2006-08-25 07:41:26 51°15.186 2°41.29 18.8009 4.602285 34.285179 0.39858
2006-08-25 07:41:31 51°15.184 2°41.289 18.8018 4.60218 34.284298 0.39858
2006-08-25 07:41:36 51°15.183 2°41.288 18.8005 4.60218 34.284298 0.39858
2006-08-25 07:41:41 51°15.181 2°41.287 18.8023 4.602707 34.288107 0.432289
2006-08-25 07:41:46 51°15.18 2°41.286 18.8007 4.602601 34.287227 0.39858
2006-08-25 07:41:51 51°15.178 2°41.285 18.8024 4.602601 34.287227 0.39858
2006-08-25 07:41:56 51°15.177 2°41.284 18.7994 4.602601 34.286634 0.432289
2006-08-25 07:42:01 51°15.175 2°41.283 18.8003 4.602391 34.286059 0.39858
2006-08-25 07:42:06 51°15.174 2°41.283 18.8009 4.602391 34.286059 0.39858
2006-08-25 07:42:11 51°15.173 2°41.281 18.8017 4.602707 34.288699 0.39858
2006-08-25 07:42:16 51°15.171 2°41.28 18.8005 4.602391 34.285466 0.432289
2006-08-25 07:42:21 51°15.17 2°41.279 18.8002 4.602707 34.288107 0.39858
2006-08-25 07:42:26 51°15.168 2°41.277 18.8012 4.602391 34.286059 0.39858
2006-08-25 07:42:31 51°15.167 2°41.276 18.7989 4.602391 34.286059 0.39858
2006-08-25 07:42:35 51°15.165 2°41.275 18.7996 4.602391 34.286059 0.39858
2006-08-25 07:42:41 51°15.164 2°41.274 18.7995 4.602601 34.287227 0.39858
2006-08-25 07:42:46 51°15.162 2°41.273 18.8 4.602812 34.288987 0.432289
2006-08-25 07:42:51 51°15.161 2°41.271 18.8001 4.60239 34.284874 0.39858
2006-08-25 07:42:56 51°15.159 2°41.27 18.7997 4.602496 34.288124 0.432289
2006-08-25 07:43:01 51°15.157 2°41.269 18.7998 4.602391 34.286651 0.39858
2006-08-25 07:43:06 51°15.155 2°41.268 18.8004 4.602391 34.286651 0.39858
2006-08-25 07:43:10 51°15.154 2°41.267 18.7996 4.602391 34.286651 0.39858
2006-08-25 07:43:16 51°15.152 2°41.265 18.801 4.602601 34.288412 0.432289
2006-08-25 07:43:21 51°15.151 2°41.264 18.8017 4.602285 34.286364 0.432289
2006-08-25 07:43:26 51°15.149 2°41.263 18.8 4.602496 34.288124 0.39858
2006-08-25 07:43:30 51°15.148 2°41.262 18.8009 4.60218 34.286076 0.39858
2006-08-25 07:43:35 51°15.146 2°41.261 18.7994 4.60218 34.286076 0.39858
2006-08-25 07:43:41 51°15.144 2°41.259 18.7982 4.602496 34.288124 0.39858
2006-08-25 07:43:46 51°15.143 2°41.258 18.8004 4.60218 34.286076 0.432289
2006-08-25 07:43:51 51°15.141 2°41.256 18.8002 4.602285 34.286364 0.432289
2006-08-25 07:43:55 51°15.14 2°41.255 18.8017 4.602601 34.289005 0.432289
2006-08-25 07:44:01 51°15.138 2°41.254 18.7991 4.60218 34.285484 0.39858
2006-08-25 07:44:06 51°15.136 2°41.253 18.7998 4.60218 34.285484 0.39858
2006-08-25 07:44:11 51°15.135 2°41.251 18.7986 4.602285 34.286364 0.432289
2006-08-25 07:44:16 51°15.134 2°41.25 18.8013 4.602496 34.286939 0.432289
2006-08-25 07:44:21 51°15.132 2°41.249 18.8007 4.602601 34.289597 0.432289
2006-08-25 07:44:26 51°15.13 2°41.248 18.8002 4.602074 34.285196 0.39858
2006-08-25 07:44:31 51°15.129 2°41.247 18.7993 4.60218 34.285484 0.39858
2006-08-25 07:44:36 51°15.127 2°41.246 18.7998 4.60218 34.285484 0.39858
2006-08-25 07:44:41 51°15.126 2°41.244 18.8 4.60218 34.286076 0.432289
2006-08-25 07:44:46 51°15.124 2°41.243 18.8007 4.602285 34.286957 0.432289
2006-08-25 07:44:51 51°15.123 2°41.242 18.8015 4.602391 34.287837 0.39858
2006-08-25 07:44:56 51°15.121 2°41.24 18.8035 4.602285 34.286364 0.432289
2006-08-25 07:45:01 51°15.119 2°41.239 18.8022 4.602496 34.288717 0.39858
2006-08-25 07:45:06 51°15.118 2°41.238 18.8017 4.602496 34.288717 0.39858
2006-08-25 07:45:11 51°15.116 2°41.236 18.8032 4.602601 34.289005 0.39858
2006-08-25 07:45:16 51°15.115 2°41.234 18.802 4.602496 34.288717 0.39858
2006-08-25 07:45:21 51°15.113 2°41.233 18.8028 4.602285 34.286364 0.432289
2006-08-25 07:45:26 51°15.112 2°41.232 18.8044 4.602285 34.285179 0.39858
2006-08-25 07:45:31 51°15.11 2°41.231 18.8042 4.602707 34.288699 0.39858
2006-08-25 07:45:36 51°15.108 2°41.23 18.8036 4.602707 34.288699 0.39858
2006-08-25 07:45:41 51°15.107 2°41.229 18.8049 4.602601 34.287227 0.39858
2006-08-25 07:45:46 51°15.105 2°41.228 18.804 4.602601 34.287819 0.432289
2006-08-25 07:45:51 51°15.104 2°41.226 18.8036 4.602601 34.286634 0.39858
2006-08-25 07:45:56 51°15.102 2°41.225 18.8057 4.602391 34.285466 0.432289
2006-08-25 07:46:01 51°15.1 2°41.224 18.8057 4.602496 34.286346 0.432289
2006-08-25 07:46:06 51°15.099 2°41.222 18.8048 4.602496 34.286346 0.432289
2006-08-25 07:46:11 51°15.098 2°41.221 18.8053 4.602601 34.286041 0.39858
2006-08-25 07:46:16 51°15.096 2°41.22 18.8059 4.602601 34.286634 0.39858
2006-08-25 07:46:21 51°15.095 2°41.218 18.8083 4.60239 34.284874 0.39858
2006-08-25 07:46:26 51°15.093 2°41.217 18.8067 4.60239 34.284281 0.432289